Wetterdaten: Mittwoch, 28.12.2022
Datum Zeit Temp. Aussen Temp. o. S. Temp +5cm Feuchte Auss Luftdruck Regen Sonnenschein Regendauer Solar Windben Empfang
28.12.2022 00:00 4,8 C 3,9 C 1,1 C 87 % 1019,9 hPa 0,0 l/m 0 min 0 min 0 W/m 6,4 km/h (2 Bft) 100,00 %
28.12.2022 00:02 4,8 C 3,9 C 1,1 C 87 % 1019,9 hPa 0,0 l/m 0 min 0 min 0 W/m 12,9 km/h (3 Bft) 97,44 %
28.12.2022 00:04 4,8 C 3,9 C 1,1 C 87 % 1019,8 hPa 0,0 l/m 0 min 0 min 0 W/m 12,9 km/h (3 Bft) 100,00 %
28.12.2022 00:08 4,8 C 3,9 C 1,1 C 87 % 1019,7 hPa 0,0 l/m 0 min 0 min 0 W/m 12,9 km/h (3 Bft) 100,00 %
28.12.2022 00:10 4,8 C 4,4 C 1,1 C 87 % 1019,6 hPa 0,0 l/m 0 min 0 min 0 W/m 9,7 km/h (2 Bft) 100,00 %
28.12.2022 00:12 4,8 C 4,4 C 1,1 C 87 % 1019,6 hPa 0,0 l/m 0 min 0 min 0 W/m 16,1 km/h (3 Bft) 97,87 %
28.12.2022 00:14 4,8 C 4,4 C 1,1 C 87 % 1019,6 hPa 0,0 l/m 0 min 0 min 0 W/m 12,9 km/h (3 Bft) 97,87 %
28.12.2022 00:16 4,8 C 4,4 C 1,1 C 87 % 1019,6 hPa 0,0 l/m 0 min 0 min 0 W/m 9,7 km/h (2 Bft) 97,87 %
28.12.2022 00:18 4,8 C 4,4 C 1,1 C 87 % 1019,5 hPa 0,0 l/m 0 min 0 min 0 W/m 16,1 km/h (3 Bft) 97,87 %
28.12.2022 00:20 4,8 C 4,4 C 1,1 C 88 % 1019,6 hPa 0,0 l/m 0 min 0 min 0 W/m 12,9 km/h (3 Bft) 97,87 %
28.12.2022 00:22 4,9 C 4,4 C 1,1 C 88 % 1019,5 hPa 0,0 l/m 0 min 0 min 0 W/m 16,1 km/h (3 Bft) 97,83 %
28.12.2022 00:24 4,9 C 4,4 C 1,7 C 88 % 1019,5 hPa 0,0 l/m 0 min 0 min 0 W/m 16,1 km/h (3 Bft) 97,87 %
28.12.2022 00:26 4,9 C 4,4 C 1,7 C 88 % 1019,4 hPa 0,0 l/m 0 min 0 min 0 W/m 12,9 km/h (3 Bft) 95,74 %
28.12.2022 00:28 4,9 C 4,4 C 1,7 C 88 % 1019,3 hPa 0,0 l/m 0 min 0 min 0 W/m 12,9 km/h (3 Bft) 95,74 %
28.12.2022 00:30 5,0 C 4,4 C 1,7 C 88 % 1019,3 hPa 0,0 l/m 0 min 0 min 0 W/m 16,1 km/h (3 Bft) 97,87 %
28.12.2022 00:32 5,0 C 4,4 C 1,7 C 88 % 1019,3 hPa 0,0 l/m 0 min 0 min 0 W/m 12,9 km/h (3 Bft) 95,74 %
28.12.2022 00:34 5,0 C 4,4 C 1,7 C 88 % 1019,2 hPa 0,0 l/m 0 min 0 min 0 W/m 12,9 km/h (3 Bft) 97,87 %
28.12.2022 00:36 5,1 C 4,4 C 1,7 C 88 % 1019,2 hPa 0,0 l/m 0 min 0 min 0 W/m 12,9 km/h (3 Bft) 55,56 %
28.12.2022 00:38 5,1 C 4,4 C 1,7 C 88 % 1019,2 hPa 0,0 l/m 0 min 0 min 0 W/m 12,9 km/h (3 Bft) 97,87 %
28.12.2022 00:40 5,1 C 4,4 C 1,7 C 88 % 1019,1 hPa 0,0 l/m 0 min 0 min 0 W/m 9,7 km/h (2 Bft) 97,87 %
28.12.2022 00:42 5,1 C 4,4 C 1,7 C 88 % 1019,0 hPa 0,0 l/m 0 min 0 min 0 W/m 12,9 km/h (3 Bft) 97,87 %
28.12.2022 00:44 5,1 C 4,4 C 1,7 C 88 % 1019,0 hPa 0,0 l/m 0 min 0 min 0 W/m 16,1 km/h (3 Bft) 95,74 %
28.12.2022 00:46 5,1 C 4,4 C 1,7 C 88 % 1019,0 hPa 0,0 l/m 0 min 0 min 0 W/m 12,9 km/h (3 Bft) 93,48 %
28.12.2022 00:48 5,2 C 4,4 C 1,7 C 88 % 1019,0 hPa 0,0 l/m 0 min 0 min 0 W/m 16,1 km/h (3 Bft) 97,87 %
28.12.2022 00:50 5,2 C 5,0 C 1,7 C 88 % 1018,9 hPa 0,0 l/m 0 min 0 min 0 W/m 12,9 km/h (3 Bft) 97,87 %
28.12.2022 00:52 5,2 C 5,0 C 1,7 C 88 % 1018,9 hPa 0,0 l/m 0 min 0 min 0 W/m 12,9 km/h (3 Bft) 97,87 %
28.12.2022 00:54 5,2 C 5,0 C 1,7 C 88 % 1018,9 hPa 0,0 l/m 0 min 0 min 0 W/m 9,7 km/h (2 Bft) 97,87 %
28.12.2022 00:56 5,2 C 5,0 C 1,7 C 88 % 1018,9 hPa 0,0 l/m 0 min 0 min 0 W/m 16,1 km/h (3 Bft) 97,87 %
28.12.2022 00:58 5,3 C 5,0 C 1,7 C 88 % 1018,9 hPa 0,0 l/m 0 min 0 min 0 W/m 12,9 km/h (3 Bft) 95,65 %
28.12.2022 01:00 5,3 C 5,0 C 1,7 C 88 % 1018,9 hPa 0,0 l/m 0 min 0 min 0 W/m 16,1 km/h (3 Bft) 97,87 %
28.12.2022 01:02 5,3 C 5,0 C 1,7 C 88 % 1018,9 hPa 0,0 l/m 0 min 0 min 0 W/m 12,9 km/h (3 Bft) 97,87 %
28.12.2022 01:04 5,3 C 5,0 C 1,7 C 88 % 1018,8 hPa 0,0 l/m 0 min 0 min 0 W/m 16,1 km/h (3 Bft) 100,00 %
28.12.2022 01:06 5,4 C 5,0 C 1,7 C 88 % 1018,9 hPa 0,0 l/m 0 min 0 min 0 W/m 9,7 km/h (2 Bft) 97,87 %
28.12.2022 01:08 5,4 C 5,0 C 1,7 C 88 % 1018,9 hPa 0,0 l/m 0 min 2 min 0 W/m 12,9 km/h (3 Bft) 95,74 %
28.12.2022 01:10 5,4 C 5,0 C 1,7 C 88 % 1018,9 hPa 0,0 l/m 0 min 2 min 0 W/m 12,9 km/h (3 Bft) 95,65 %
28.12.2022 01:12 5,4 C 5,0 C 1,7 C 88 % 1018,8 hPa 0,0 l/m 0 min 2 min 0 W/m 12,9 km/h (3 Bft) 97,87 %
28.12.2022 01:14 5,5 C 5,0 C 1,7 C 88 % 1018,8 hPa 0,0 l/m 0 min 2 min 0 W/m 6,4 km/h (2 Bft) 95,74 %
28.12.2022 01:16 5,5 C 5,0 C 1,1 C 88 % 1018,7 hPa 0,0 l/m 0 min 2 min 0 W/m 6,4 km/h (2 Bft) 97,87 %
28.12.2022 01:18 5,6 C 5,0 C 1,1 C 89 % 1018,7 hPa 0,0 l/m 0 min 2 min 0 W/m 9,7 km/h (2 Bft) 95,74 %
28.12.2022 01:20 5,6 C 5,0 C 1,1 C 89 % 1018,6 hPa 0,0 l/m 0 min 2 min 0 W/m 6,4 km/h (2 Bft) 97,87 %
28.12.2022 01:22 5,6 C 5,0 C 1,1 C 89 % 1018,6 hPa 0,0 l/m 0 min 2 min 0 W/m 12,9 km/h (3 Bft) 97,83 %
28.12.2022 01:24 5,6 C 5,0 C 1,1 C 89 % 1018,6 hPa 0,0 l/m 0 min 2 min 0 W/m 6,4 km/h (2 Bft) 95,74 %
28.12.2022 01:26 5,6 C 5,0 C 1,1 C 89 % 1018,4 hPa 0,0 l/m 0 min 0 min 0 W/m 16,1 km/h (3 Bft) 95,74 %
28.12.2022 01:28 5,6 C 5,0 C 1,1 C 89 % 1018,3 hPa 0,0 l/m 0 min 0 min 0 W/m 12,9 km/h (3 Bft) 97,87 %
28.12.2022 01:30 5,7 C 5,0 C 1,1 C 90 % 1018,3 hPa 0,0 l/m 0 min 0 min 0 W/m 12,9 km/h (3 Bft) 97,87 %
28.12.2022 01:32 5,7 C 5,0 C 1,1 C 90 % 1018,3 hPa 0,0 l/m 0 min 0 min 0 W/m 12,9 km/h (3 Bft) 93,62 %
28.12.2022 01:34 5,7 C 5,0 C 1,1 C 90 % 1018,3 hPa 0,0 l/m 0 min 0 min 0 W/m 9,7 km/h (2 Bft) 95,65 %
28.12.2022 01:36 5,7 C 5,0 C 1,1 C 90 % 1018,3 hPa 0,0 l/m 0 min 0 min 0 W/m 12,9 km/h (3 Bft) 95,74 %
28.12.2022 01:38 5,7 C 5,0 C 1,1 C 90 % 1018,2 hPa 0,0 l/m 0 min 0 min 0 W/m 6,4 km/h (2 Bft) 95,74 %
28.12.2022 01:40 5,7 C 5,0 C 1,7 C 90 % 1018,1 hPa 0,0 l/m 0 min 0 min 0 W/m 6,4 km/h (2 Bft) 97,87 %
28.12.2022 01:42 5,7 C 5,0 C 1,7 C 90 % 1018,0 hPa 0,0 l/m 0 min 0 min 0 W/m 12,9 km/h (3 Bft) 97,87 %
28.12.2022 01:44 5,7 C 5,0 C 1,7 C 90 % 1018,0 hPa 0,0 l/m 0 min 0 min 0 W/m 12,9 km/h (3 Bft) 95,74 %
28.12.2022 01:46 5,7 C 5,0 C 1,7 C 90 % 1018,0 hPa 0,0 l/m 0 min 2 min 0 W/m 16,1 km/h (3 Bft) 95,65 %
28.12.2022 01:48 5,8 C 5,6 C 1,7 C 91 % 1017,9 hPa 0,0 l/m 0 min 2 min 0 W/m 9,7 km/h (2 Bft) 97,87 %
28.12.2022 01:50 5,8 C 5,6 C 1,7 C 91 % 1017,8 hPa 0,2 l/m 0 min 2 min 0 W/m 9,7 km/h (2 Bft) 97,87 %
28.12.2022 01:52 5,8 C 5,6 C 1,7 C 91 % 1017,8 hPa 0,0 l/m 0 min 0 min 0 W/m 9,7 km/h (2 Bft) 97,87 %
28.12.2022 01:54 5,9 C 5,6 C 1,7 C 91 % 1017,8 hPa 0,0 l/m 0 min 0 min 0 W/m 12,9 km/h (3 Bft) 95,74 %
28.12.2022 01:56 5,9 C 5,6 C 1,7 C 91 % 1017,7 hPa 0,0 l/m 0 min 0 min 0 W/m 16,1 km/h (3 Bft) 97,83 %
28.12.2022 01:58 5,9 C 5,6 C 1,7 C 91 % 1017,7 hPa 0,0 l/m 0 min 2 min 0 W/m 16,1 km/h (3 Bft) 97,87 %
28.12.2022 02:00 6,0 C 5,6 C 1,7 C 91 % 1017,7 hPa 0,0 l/m 0 min 2 min 0 W/m 16,1 km/h (3 Bft) 97,87 %
28.12.2022 02:02 6,0 C 5,6 C 1,7 C 91 % 1017,6 hPa 0,0 l/m 0 min 2 min 0 W/m 12,9 km/h (3 Bft) 97,87 %
28.12.2022 02:04 6,1 C 5,6 C 1,7 C 91 % 1017,6 hPa 0,0 l/m 0 min 2 min 0 W/m 16,1 km/h (3 Bft) 97,87 %
28.12.2022 02:06 6,1 C 5,6 C 1,7 C 91 % 1017,6 hPa 0,0 l/m 0 min 2 min 0 W/m 12,9 km/h (3 Bft) 95,74 %
28.12.2022 02:08 6,1 C 5,6 C 1,7 C 91 % 1017,6 hPa 0,0 l/m 0 min 0 min 0 W/m 19,3 km/h (3 Bft) 97,83 %
28.12.2022 02:10 6,1 C 5,6 C 1,7 C 91 % 1017,5 hPa 0,0 l/m 0 min 2 min 0 W/m 19,3 km/h (3 Bft) 97,87 %
28.12.2022 02:12 6,1 C 5,6 C 1,7 C 91 % 1017,5 hPa 0,0 l/m 0 min 0 min 0 W/m 12,9 km/h (3 Bft) 97,87 %
28.12.2022 02:14 6,2 C 5,6 C 1,7 C 91 % 1017,5 hPa 0,0 l/m 0 min 0 min 0 W/m 22,5 km/h (4 Bft) 97,87 %
28.12.2022 02:16 6,2 C 5,6 C 1,7 C 91 % 1017,3 hPa 0,0 l/m 0 min 0 min 0 W/m 19,3 km/h (3 Bft) 100,00 %
28.12.2022 02:18 6,2 C 5,6 C 1,7 C 91 % 1017,3 hPa 0,0 l/m 0 min 0 min 0 W/m 12,9 km/h (3 Bft) 100,00 %
28.12.2022 02:20 6,2 C 5,6 C 1,7 C 91 % 1017,1 hPa 0,0 l/m 0 min 0 min 0 W/m 16,1 km/h (3 Bft) 100,00 %
28.12.2022 02:22 6,3 C 5,6 C 1,7 C 91 % 1017,1 hPa 0,0 l/m 0 min 0 min 0 W/m 19,3 km/h (3 Bft) 97,87 %
28.12.2022 02:24 6,3 C 5,6 C 1,7 C 91 % 1017,1 hPa 0,0 l/m 0 min 0 min 0 W/m 19,3 km/h (3 Bft) 100,00 %
28.12.2022 02:26 6,3 C 5,6 C 2,2 C 91 % 1017,1 hPa 0,0 l/m 0 min 0 min 0 W/m 16,1 km/h (3 Bft) 97,87 %
28.12.2022 02:28 6,3 C 5,6 C 2,2 C 91 % 1017,1 hPa 0,0 l/m 0 min 0 min 0 W/m 12,9 km/h (3 Bft) 97,87 %
28.12.2022 02:30 6,4 C 6,1 C 2,2 C 91 % 1017,2 hPa 0,0 l/m 0 min 0 min 0 W/m 19,3 km/h (3 Bft) 97,87 %
28.12.2022 02:32 6,4 C 6,1 C 2,2 C 91 % 1017,1 hPa 0,0 l/m 0 min 0 min 0 W/m 16,1 km/h (3 Bft) 100,00 %
28.12.2022 02:34 6,4 C 6,1 C 2,2 C 91 % 1017,1 hPa 0,0 l/m 0 min 0 min 0 W/m 25,7 km/h (4 Bft) 100,00 %
28.12.2022 02:36 6,4 C 6,1 C 2,2 C 91 % 1017,1 hPa 0,0 l/m 0 min 0 min 0 W/m 16,1 km/h (3 Bft) 100,00 %
28.12.2022 02:38 6,5 C 6,1 C 2,2 C 91 % 1017,1 hPa 0,0 l/m 0 min 0 min 0 W/m 19,3 km/h (3 Bft) 97,87 %
28.12.2022 02:40 6,5 C 6,1 C 2,2 C 91 % 1017,0 hPa 0,0 l/m 0 min 0 min 0 W/m 16,1 km/h (3 Bft) 97,87 %
28.12.2022 02:42 6,5 C 6,1 C 2,2 C 91 % 1017,0 hPa 0,0 l/m 0 min 0 min 0 W/m 29,0 km/h (5 Bft) 100,00 %
28.12.2022 02:44 6,6 C 6,1 C 2,2 C 91 % 1017,0 hPa 0,0 l/m 0 min 0 min 0 W/m 16,1 km/h (3 Bft) 97,83 %
28.12.2022 02:46 6,6 C 6,1 C 2,2 C 91 % 1017,0 hPa 0,0 l/m 0 min 0 min 0 W/m 25,7 km/h (4 Bft) 100,00 %
28.12.2022 02:48 6,7 C 6,1 C 2,2 C 91 % 1016,9 hPa 0,0 l/m 0 min 0 min 0 W/m 19,3 km/h (3 Bft) 100,00 %
28.12.2022 02:50 6,7 C 6,1 C 2,2 C 91 % 1016,9 hPa 0,0 l/m 0 min 0 min 0 W/m 19,3 km/h (3 Bft) 100,00 %
28.12.2022 02:52 6,7 C 6,1 C 2,2 C 91 % 1016,9 hPa 0,0 l/m 0 min 0 min 0 W/m 22,5 km/h (4 Bft) 100,00 %
28.12.2022 02:54 6,8 C 6,1 C 2,2 C 91 % 1016,9 hPa 0,0 l/m 0 min 0 min 0 W/m 16,1 km/h (3 Bft) 100,00 %
28.12.2022 02:56 6,8 C 6,1 C 2,2 C 90 % 1016,9 hPa 0,0 l/m 0 min 0 min 0 W/m 12,9 km/h (3 Bft) 100,00 %
28.12.2022 02:58 6,8 C 6,1 C 2,2 C 90 % 1017,0 hPa 0,0 l/m 0 min 0 min 0 W/m 19,3 km/h (3 Bft) 97,87 %
28.12.2022 03:00 6,8 C 6,1 C 2,2 C 90 % 1016,9 hPa 0,0 l/m 0 min 0 min 0 W/m 22,5 km/h (4 Bft) 97,87 %
28.12.2022 03:02 6,9 C 6,7 C 2,8 C 90 % 1016,8 hPa 0,0 l/m 0 min 0 min 0 W/m 19,3 km/h (3 Bft) 95,74 %
28.12.2022 03:04 6,9 C 6,7 C 2,8 C 90 % 1016,8 hPa 0,0 l/m 0 min 0 min 0 W/m 22,5 km/h (4 Bft) 97,87 %
28.12.2022 03:06 6,9 C 6,7 C 2,8 C 90 % 1016,7 hPa 0,0 l/m 0 min 0 min 0 W/m 19,3 km/h (3 Bft) 97,87 %
28.12.2022 03:08 7,0 C 6,7 C 2,8 C 90 % 1016,7 hPa 0,0 l/m 0 min 0 min 0 W/m 12,9 km/h (3 Bft) 97,83 %
28.12.2022 03:10 7,0 C 6,7 C 2,8 C 90 % 1016,7 hPa 0,0 l/m 0 min 0 min 0 W/m 22,5 km/h (4 Bft) 97,87 %
28.12.2022 03:12 7,1 C 6,7 C 2,8 C 90 % 1016,6 hPa 0,0 l/m 0 min 0 min 0 W/m 32,2 km/h (5 Bft) 95,74 %
28.12.2022 03:14 7,1 C 6,7 C 2,8 C 89 % 1016,6 hPa 0,0 l/m 0 min 0 min 0 W/m 16,1 km/h (3 Bft) 95,74 %
28.12.2022 03:16 7,1 C 6,7 C 2,8 C 89 % 1016,6 hPa 0,0 l/m 0 min 0 min 0 W/m 19,3 km/h (3 Bft) 95,74 %
28.12.2022 03:18 7,1 C 6,7 C 2,8 C 89 % 1016,6 hPa 0,0 l/m 0 min 0 min 0 W/m 22,5 km/h (4 Bft) 93,62 %
28.12.2022 03:20 7,1 C 6,7 C 3,3 C 89 % 1016,5 hPa 0,0 l/m 0 min 0 min 0 W/m 25,7 km/h (4 Bft) 93,48 %
28.12.2022 03:22 7,2 C 6,7 C 3,3 C 89 % 1016,5 hPa 0,0 l/m 0 min 0 min 0 W/m 22,5 km/h (4 Bft) 93,62 %
28.12.2022 03:24 7,2 C 6,7 C 3,3 C 89 % 1016,5 hPa 0,0 l/m 0 min 0 min 0 W/m 16,1 km/h (3 Bft) 93,62 %
28.12.2022 03:26 7,2 C 6,7 C 3,3 C 89 % 1016,5 hPa 0,0 l/m 0 min 0 min 0 W/m 25,7 km/h (4 Bft) 93,62 %
28.12.2022 03:28 7,2 C 6,7 C 3,3 C 89 % 1016,4 hPa 0,0 l/m 0 min 0 min 0 W/m 38,6 km/h (5 Bft) 93,62 %
28.12.2022 03:30 7,2 C 6,7 C 3,3 C 89 % 1016,4 hPa 0,0 l/m 0 min 0 min 0 W/m 22,5 km/h (4 Bft) 95,74 %
28.12.2022 03:32 7,2 C 6,7 C 3,3 C 89 % 1016,4 hPa 0,0 l/m 0 min 0 min 0 W/m 32,2 km/h (5 Bft) 100,00 %
28.12.2022 03:34 7,3 C 6,7 C 3,3 C 89 % 1016,3 hPa 0,0 l/m 0 min 0 min 0 W/m 29,0 km/h (5 Bft) 97,87 %
28.12.2022 03:36 7,3 C 6,7 C 3,3 C 89 % 1016,3 hPa 0,0 l/m 0 min 0 min 0 W/m 19,3 km/h (3 Bft) 97,87 %
28.12.2022 03:38 7,3 C 6,7 C 3,3 C 89 % 1016,2 hPa 0,0 l/m 0 min 0 min 0 W/m 32,2 km/h (5 Bft) 95,74 %
28.12.2022 03:40 7,3 C 6,7 C 3,3 C 89 % 1016,2 hPa 0,0 l/m 0 min 0 min 0 W/m 38,6 km/h (5 Bft) 97,87 %
28.12.2022 03:42 7,3 C 6,7 C 3,3 C 89 % 1016,1 hPa 0,0 l/m 0 min 0 min 0 W/m 22,5 km/h (4 Bft) 97,87 %
28.12.2022 03:44 7,3 C 6,7 C 3,3 C 89 % 1016,0 hPa 0,0 l/m 0 min 0 min 0 W/m 19,3 km/h (3 Bft) 97,83 %
28.12.2022 03:46 7,3 C 6,7 C 3,3 C 89 % 1016,0 hPa 0,0 l/m 0 min 0 min 0 W/m 16,1 km/h (3 Bft) 97,87 %
28.12.2022 03:48 7,4 C 6,7 C 3,3 C 89 % 1015,9 hPa 0,0 l/m 0 min 0 min 0 W/m 16,1 km/h (3 Bft) 97,87 %
28.12.2022 03:50 7,4 C 6,7 C 3,3 C 89 % 1015,8 hPa 0,0 l/m 0 min 0 min 0 W/m 16,1 km/h (3 Bft) 95,74 %
28.12.2022 03:52 7,4 C 6,7 C 3,3 C 89 % 1015,8 hPa 0,0 l/m 0 min 0 min 0 W/m 16,1 km/h (3 Bft) 95,74 %
28.12.2022 03:54 7,4 C 6,7 C 3,3 C 89 % 1015,8 hPa 0,0 l/m 0 min 0 min 0 W/m 19,3 km/h (3 Bft) 95,74 %
28.12.2022 03:56 7,4 C 6,7 C 3,3 C 89 % 1015,8 hPa 0,0 l/m 0 min 0 min 0 W/m 32,2 km/h (5 Bft) 97,83 %
28.12.2022 03:58 7,4 C 6,7 C 3,3 C 89 % 1015,8 hPa 0,0 l/m 0 min 0 min 0 W/m 19,3 km/h (3 Bft) 93,62 %
28.12.2022 04:00 7,4 C 6,7 C 3,3 C 89 % 1015,7 hPa 0,0 l/m 0 min 0 min 0 W/m 22,5 km/h (4 Bft) 95,74 %
28.12.2022 04:02 7,4 C 6,7 C 3,3 C 89 % 1015,6 hPa 0,0 l/m 0 min 0 min 0 W/m 22,5 km/h (4 Bft) 100,00 %
28.12.2022 04:04 7,4 C 6,7 C 3,3 C 89 % 1015,6 hPa 0,0 l/m 0 min 0 min 0 W/m 19,3 km/h (3 Bft) 97,87 %
28.12.2022 04:06 7,4 C 6,7 C 3,3 C 89 % 1015,5 hPa 0,0 l/m 0 min 0 min 0 W/m 29,0 km/h (5 Bft) 100,00 %
28.12.2022 04:08 7,4 C 6,7 C 3,3 C 89 % 1015,5 hPa 0,0 l/m 0 min 0 min 0 W/m 19,3 km/h (3 Bft) 95,65 %
28.12.2022 04:10 7,4 C 6,7 C 3,3 C 89 % 1015,4 hPa 0,0 l/m 0 min 0 min 0 W/m 19,3 km/h (3 Bft) 91,49 %
28.12.2022 04:12 7,4 C 6,7 C 3,3 C 89 % 1015,4 hPa 0,0 l/m 0 min 0 min 0 W/m 25,7 km/h (4 Bft) 97,87 %
28.12.2022 04:14 7,5 C 6,7 C 3,3 C 89 % 1015,4 hPa 0,0 l/m 0 min 0 min 0 W/m 19,3 km/h (3 Bft) 97,87 %
28.12.2022 04:16 7,5 C 6,7 C 3,3 C 89 % 1015,4 hPa 0,0 l/m 0 min 0 min 0 W/m 22,5 km/h (4 Bft) 97,92 %
28.12.2022 04:18 7,6 C 7,2 C 3,9 C 88 % 1015,3 hPa 0,0 l/m 0 min 0 min 0 W/m 22,5 km/h (4 Bft) 95,74 %
28.12.2022 04:20 7,6 C 7,2 C 3,9 C 88 % 1015,3 hPa 0,0 l/m 0 min 0 min 0 W/m 25,7 km/h (4 Bft) 97,83 %
28.12.2022 04:22 7,6 C 7,2 C 3,9 C 88 % 1015,4 hPa 0,0 l/m 0 min 0 min 0 W/m 41,8 km/h (6 Bft) 97,87 %
28.12.2022 04:24 7,6 C 7,2 C 3,9 C 88 % 1015,3 hPa 0,0 l/m 0 min 0 min 0 W/m 25,7 km/h (4 Bft) 97,87 %
28.12.2022 04:26 7,7 C 7,2 C 3,9 C 88 % 1015,3 hPa 0,0 l/m 0 min 0 min 0 W/m 29,0 km/h (5 Bft) 97,87 %
28.12.2022 04:28 7,7 C 7,2 C 3,9 C 88 % 1015,2 hPa 0,0 l/m 0 min 0 min 0 W/m 19,3 km/h (3 Bft) 97,87 %
28.12.2022 04:30 7,7 C 7,2 C 3,9 C 88 % 1015,2 hPa 0,0 l/m 0 min 0 min 0 W/m 25,7 km/h (4 Bft) 95,74 %
28.12.2022 04:32 7,8 C 7,2 C 3,9 C 88 % 1015,2 hPa 0,0 l/m 0 min 0 min 0 W/m 22,5 km/h (4 Bft) 97,83 %
28.12.2022 04:34 7,8 C 7,2 C 3,9 C 88 % 1015,2 hPa 0,0 l/m 0 min 0 min 0 W/m 32,2 km/h (5 Bft) 97,87 %
28.12.2022 04:36 7,8 C 7,2 C 3,9 C 88 % 1015,1 hPa 0,0 l/m 0 min 0 min 0 W/m 25,7 km/h (4 Bft) 97,87 %
28.12.2022 04:38 7,8 C 7,2 C 3,9 C 88 % 1015,2 hPa 0,0 l/m 0 min 0 min 0 W/m 22,5 km/h (4 Bft) 97,87 %
28.12.2022 04:40 7,8 C 7,2 C 3,9 C 87 % 1015,3 hPa 0,0 l/m 0 min 0 min 0 W/m 22,5 km/h (4 Bft) 95,74 %
28.12.2022 04:42 7,9 C 7,2 C 3,9 C 88 % 1015,1 hPa 0,0 l/m 0 min 0 min 0 W/m 35,4 km/h (5 Bft) 95,74 %
28.12.2022 04:44 7,9 C 7,2 C 3,9 C 88 % 1015,1 hPa 0,0 l/m 0 min 0 min 0 W/m 35,4 km/h (5 Bft) 97,83 %
28.12.2022 04:46 8,0 C 7,2 C 3,9 C 87 % 1015,2 hPa 0,0 l/m 0 min 0 min 0 W/m 22,5 km/h (4 Bft) 100,00 %
28.12.2022 04:48 8,0 C 7,2 C 4,4 C 87 % 1015,0 hPa 0,0 l/m 0 min 0 min 0 W/m 35,4 km/h (5 Bft) 100,00 %
28.12.2022 04:50 8,1 C 7,2 C 3,9 C 87 % 1015,0 hPa 0,0 l/m 0 min 0 min 0 W/m 35,4 km/h (5 Bft) 97,87 %
28.12.2022 04:52 8,1 C 7,8 C 4,4 C 87 % 1015,1 hPa 0,0 l/m 0 min 0 min 0 W/m 51,5 km/h (7 Bft) 97,87 %
28.12.2022 04:54 8,1 C 7,2 C 4,4 C 87 % 1015,0 hPa 0,0 l/m 0 min 0 min 0 W/m 29,0 km/h (5 Bft) 97,83 %
28.12.2022 04:56 8,1 C 7,2 C 4,4 C 87 % 1015,0 hPa 0,0 l/m 0 min 0 min 0 W/m 22,5 km/h (4 Bft) 97,87 %
28.12.2022 04:58 8,1 C 7,2 C 4,4 C 87 % 1015,0 hPa 0,0 l/m 0 min 0 min 0 W/m 25,7 km/h (4 Bft) 97,87 %
28.12.2022 05:00 8,2 C 7,2 C 4,4 C 87 % 1014,9 hPa 0,0 l/m 0 min 0 min 0 W/m 19,3 km/h (3 Bft) 97,87 %
28.12.2022 05:02 8,2 C 7,8 C 4,4 C 87 % 1015,0 hPa 0,0 l/m 0 min 0 min 0 W/m 19,3 km/h (3 Bft) 97,87 %
28.12.2022 05:04 8,2 C 7,2 C 4,4 C 87 % 1015,0 hPa 0,0 l/m 0 min 0 min 0 W/m 19,3 km/h (3 Bft) 97,87 %
28.12.2022 05:06 8,2 C 7,8 C 4,4 C 87 % 1014,7 hPa 0,0 l/m 0 min 0 min 0 W/m 22,5 km/h (4 Bft) 97,87 %
28.12.2022 05:08 8,2 C 7,8 C 4,4 C 87 % 1014,7 hPa 0,0 l/m 0 min 0 min 0 W/m 22,5 km/h (4 Bft) 97,83 %
28.12.2022 05:10 8,2 C 7,8 C 4,4 C 87 % 1014,8 hPa 0,0 l/m 0 min 0 min 0 W/m 48,3 km/h (6 Bft) 97,87 %
28.12.2022 05:12 8,3 C 7,8 C 4,4 C 87 % 1014,7 hPa 0,0 l/m 0 min 0 min 0 W/m 29,0 km/h (5 Bft) 95,74 %
28.12.2022 05:14 8,3 C 7,8 C 4,4 C 87 % 1014,8 hPa 0,0 l/m 0 min 0 min 0 W/m 32,2 km/h (5 Bft) 97,87 %
28.12.2022 05:16 8,4 C 7,8 C 4,4 C 87 % 1014,8 hPa 0,0 l/m 0 min 0 min 0 W/m 45,1 km/h (6 Bft) 97,87 %
28.12.2022 05:18 8,4 C 7,8 C 4,4 C 87 % 1014,6 hPa 0,0 l/m 0 min 0 min 0 W/m 35,4 km/h (5 Bft) 97,83 %
28.12.2022 05:20 8,4 C 7,8 C 4,4 C 87 % 1014,8 hPa 0,0 l/m 0 min 0 min 0 W/m 41,8 km/h (6 Bft) 97,87 %
28.12.2022 05:22 8,4 C 7,8 C 4,4 C 87 % 1014,7 hPa 0,0 l/m 0 min 0 min 0 W/m 29,0 km/h (5 Bft) 95,74 %
28.12.2022 05:24 8,5 C 7,8 C 4,4 C 87 % 1014,8 hPa 0,0 l/m 0 min 0 min 0 W/m 29,0 km/h (5 Bft) 97,87 %
28.12.2022 05:26 8,5 C 7,8 C 4,4 C 87 % 1014,8 hPa 0,0 l/m 0 min 0 min 0 W/m 51,5 km/h (7 Bft) 95,74 %
28.12.2022 05:28 8,6 C 7,8 C 4,4 C 87 % 1014,6 hPa 0,0 l/m 0 min 0 min 0 W/m 45,1 km/h (6 Bft) 97,87 %
28.12.2022 05:30 8,6 C 7,8 C 4,4 C 86 % 1014,7 hPa 0,0 l/m 0 min 0 min 0 W/m 35,4 km/h (5 Bft) 100,00 %
28.12.2022 05:32 8,6 C 7,8 C 4,4 C 86 % 1014,6 hPa 0,0 l/m 0 min 0 min 0 W/m 38,6 km/h (5 Bft) 97,87 %
28.12.2022 05:34 8,6 C 7,8 C 4,4 C 86 % 1014,4 hPa 0,0 l/m 0 min 0 min 0 W/m 35,4 km/h (5 Bft) 100,00 %
28.12.2022 05:36 8,6 C 7,8 C 4,4 C 86 % 1014,6 hPa 0,0 l/m 0 min 0 min 0 W/m 54,7 km/h (7 Bft) 100,00 %
28.12.2022 05:38 8,6 C 7,8 C 4,4 C 86 % 1014,7 hPa 0,0 l/m 0 min 0 min 0 W/m 38,6 km/h (5 Bft) 97,87 %
28.12.2022 05:40 8,6 C 7,8 C 4,4 C 86 % 1014,4 hPa 0,0 l/m 0 min 0 min 0 W/m 32,2 km/h (5 Bft) 100,00 %
28.12.2022 05:42 8,6 C 7,8 C 4,4 C 86 % 1014,5 hPa 0,0 l/m 0 min 0 min 0 W/m 32,2 km/h (5 Bft) 100,00 %
28.12.2022 05:44 8,7 C 7,8 C 4,4 C 86 % 1014,5 hPa 0,0 l/m 0 min 0 min 0 W/m 41,8 km/h (6 Bft) 100,00 %
28.12.2022 05:46 8,7 C 7,8 C 4,4 C 86 % 1014,3 hPa 0,0 l/m 0 min 0 min 0 W/m 35,4 km/h (5 Bft) 97,87 %
28.12.2022 05:48 8,7 C 7,8 C 4,4 C 86 % 1014,4 hPa 0,0 l/m 0 min 0 min 0 W/m 35,4 km/h (5 Bft) 100,00 %
28.12.2022 05:50 8,7 C 7,8 C 4,4 C 86 % 1014,3 hPa 0,0 l/m 0 min 0 min 0 W/m 25,7 km/h (4 Bft) 100,00 %
28.12.2022 05:52 8,7 C 7,8 C 4,4 C 86 % 1014,2 hPa 0,0 l/m 0 min 0 min 0 W/m 35,4 km/h (5 Bft) 100,00 %
28.12.2022 05:54 8,7 C 7,8 C 4,4 C 86 % 1014,3 hPa 0,0 l/m 0 min 2 min 0 W/m 25,7 km/h (4 Bft) 100,00 %
28.12.2022 05:56 8,7 C 7,8 C 3,9 C 86 % 1014,3 hPa 0,0 l/m 0 min 2 min 0 W/m 35,4 km/h (5 Bft) 100,00 %
28.12.2022 05:58 8,7 C 7,8 C 3,9 C 86 % 1014,3 hPa 0,0 l/m 0 min 2 min 0 W/m 25,7 km/h (4 Bft) 100,00 %
28.12.2022 06:00 8,7 C 7,2 C 3,9 C 87 % 1014,3 hPa 0,0 l/m 0 min 2 min 0 W/m 45,1 km/h (6 Bft) 100,00 %
28.12.2022 06:02 8,7 C 7,8 C 3,9 C 87 % 1014,4 hPa 0,0 l/m 0 min 2 min 0 W/m 38,6 km/h (5 Bft) 97,87 %
28.12.2022 06:04 8,7 C 7,8 C 3,9 C 87 % 1014,3 hPa 0,0 l/m 0 min 2 min 0 W/m 29,0 km/h (5 Bft) 100,00 %
28.12.2022 06:08 8,7 C 7,8 C 3,9 C 87 % 1014,3 hPa 0,0 l/m 0 min 0 min 0 W/m 38,6 km/h (5 Bft) 100,00 %
28.12.2022 06:10 8,7 C 7,8 C 3,9 C 87 % 1014,2 hPa 0,0 l/m 0 min 0 min 0 W/m 29,0 km/h (5 Bft) 97,83 %
28.12.2022 06:12 8,7 C 7,8 C 3,9 C 87 % 1014,3 hPa 0,0 l/m 0 min 0 min 0 W/m 32,2 km/h (5 Bft) 97,87 %
28.12.2022 06:14 8,7 C 7,8 C 3,9 C 87 % 1014,3 hPa 0,0 l/m 0 min 0 min 0 W/m 25,7 km/h (4 Bft) 97,87 %
28.12.2022 06:16 8,7 C 7,8 C 3,9 C 87 % 1014,3 hPa 0,0 l/m 0 min 0 min 0 W/m 35,4 km/h (5 Bft) 95,74 %
28.12.2022 06:18 8,7 C 7,8 C 4,4 C 87 % 1014,2 hPa 0,0 l/m 0 min 0 min 0 W/m 32,2 km/h (5 Bft) 97,96 %
28.12.2022 06:20 8,7 C 7,8 C 4,4 C 87 % 1014,3 hPa 0,0 l/m 0 min 0 min 0 W/m 41,8 km/h (6 Bft) 95,74 %
28.12.2022 06:22 8,7 C 7,8 C 4,4 C 87 % 1014,2 hPa 0,0 l/m 0 min 0 min 0 W/m 32,2 km/h (5 Bft) 95,74 %
28.12.2022 06:24 8,7 C 7,8 C 4,4 C 87 % 1014,3 hPa 0,0 l/m 0 min 0 min 0 W/m 35,4 km/h (5 Bft) 98,11 %
28.12.2022 06:26 8,7 C 7,8 C 4,4 C 87 % 1014,2 hPa 0,0 l/m 0 min 0 min 0 W/m 32,2 km/h (5 Bft) 93,62 %
28.12.2022 06:28 8,7 C 7,8 C 4,4 C 87 % 1014,2 hPa 0,0 l/m 0 min 0 min 0 W/m 32,2 km/h (5 Bft) 95,74 %
28.12.2022 06:30 8,7 C 7,8 C 4,4 C 87 % 1014,1 hPa 0,0 l/m 0 min 0 min 0 W/m 35,4 km/h (5 Bft) 95,65 %
28.12.2022 06:32 8,8 C 7,8 C 4,4 C 87 % 1014,2 hPa 0,0 l/m 0 min 0 min 0 W/m 32,2 km/h (5 Bft) 95,74 %
28.12.2022 06:34 8,8 C 7,8 C 4,4 C 87 % 1014,1 hPa 0,0 l/m 0 min 0 min 0 W/m 22,5 km/h (4 Bft) 97,87 %
28.12.2022 06:36 8,8 C 7,8 C 4,4 C 87 % 1014,0 hPa 0,0 l/m 0 min 0 min 0 W/m 25,7 km/h (4 Bft) 95,74 %
28.12.2022 06:38 8,8 C 8,3 C 4,4 C 87 % 1014,1 hPa 0,0 l/m 0 min 0 min 0 W/m 48,3 km/h (6 Bft) 97,87 %
28.12.2022 06:40 8,8 C 8,3 C 5,0 C 87 % 1014,1 hPa 0,0 l/m 0 min 0 min 0 W/m 45,1 km/h (6 Bft) 97,87 %
28.12.2022 06:42 8,8 C 8,3 C 5,0 C 87 % 1014,0 hPa 0,0 l/m 0 min 0 min 0 W/m 38,6 km/h (5 Bft) 97,83 %
28.12.2022 06:44 8,8 C 8,3 C 5,0 C 87 % 1014,1 hPa 0,0 l/m 0 min 0 min 0 W/m 25,7 km/h (4 Bft) 93,62 %
28.12.2022 06:46 8,8 C 8,3 C 5,0 C 87 % 1014,1 hPa 0,0 l/m 0 min 0 min 0 W/m 38,6 km/h (5 Bft) 95,74 %
28.12.2022 06:48 8,8 C 8,3 C 5,0 C 87 % 1014,0 hPa 0,0 l/m 0 min 0 min 0 W/m 32,2 km/h (5 Bft) 89,36 %
28.12.2022 06:50 8,8 C 8,3 C 5,0 C 87 % 1014,2 hPa 0,0 l/m 0 min 0 min 0 W/m 32,2 km/h (5 Bft) 93,62 %
28.12.2022 06:52 8,8 C 8,3 C 5,0 C 87 % 1014,1 hPa 0,0 l/m 0 min 0 min 0 W/m 35,4 km/h (5 Bft) 95,74 %
28.12.2022 06:54 8,8 C 8,3 C 5,0 C 87 % 1014,2 hPa 0,0 l/m 0 min 0 min 0 W/m 45,1 km/h (6 Bft) 93,48 %
28.12.2022 06:56 8,8 C 8,3 C 5,0 C 87 % 1014,2 hPa 0,0 l/m 0 min 0 min 0 W/m 32,2 km/h (5 Bft) 89,36 %
28.12.2022 06:58 8,8 C 8,3 C 5,0 C 87 % 1014,0 hPa 0,0 l/m 0 min 0 min 0 W/m 29,0 km/h (5 Bft) 95,74 %
28.12.2022 07:00 8,8 C 7,8 C 5,0 C 88 % 1013,9 hPa 0,0 l/m 0 min 0 min 0 W/m 41,8 km/h (6 Bft) 91,49 %
28.12.2022 07:02 8,8 C 7,8 C 5,0 C 88 % 1014,0 hPa 0,0 l/m 0 min 0 min 0 W/m 29,0 km/h (5 Bft) 95,74 %
28.12.2022 07:04 8,8 C 7,8 C 5,0 C 88 % 1014,0 hPa 0,0 l/m 0 min 0 min 0 W/m 29,0 km/h (5 Bft) 93,62 %
28.12.2022 07:06 8,8 C 8,3 C 5,0 C 88 % 1013,9 hPa 0,0 l/m 0 min 0 min 0 W/m 32,2 km/h (5 Bft) 95,74 %
28.12.2022 07:08 8,8 C 7,8 C 5,0 C 88 % 1013,8 hPa 0,0 l/m 0 min 0 min 0 W/m 32,2 km/h (5 Bft) 93,62 %
28.12.2022 07:10 8,8 C 7,8 C 5,0 C 88 % 1013,7 hPa 0,0 l/m 0 min 0 min 0 W/m 22,5 km/h (4 Bft) 95,74 %
28.12.2022 07:12 8,8 C 8,3 C 5,0 C 88 % 1013,7 hPa 0,0 l/m 0 min 0 min 0 W/m 35,4 km/h (5 Bft) 93,62 %
28.12.2022 07:14 8,8 C 8,3 C 5,0 C 88 % 1013,7 hPa 0,0 l/m 0 min 0 min 0 W/m 41,8 km/h (6 Bft) 95,74 %
28.12.2022 07:16 8,8 C 8,3 C 5,0 C 88 % 1013,7 hPa 0,0 l/m 0 min 0 min 0 W/m 41,8 km/h (6 Bft) 93,62 %
28.12.2022 07:18 8,8 C 8,3 C 5,0 C 88 % 1013,6 hPa 0,0 l/m 0 min 0 min 0 W/m 32,2 km/h (5 Bft) 93,48 %
28.12.2022 07:20 8,9 C 8,3 C 5,0 C 88 % 1013,7 hPa 0,0 l/m 0 min 0 min 0 W/m 25,7 km/h (4 Bft) 95,74 %
28.12.2022 07:22 8,9 C 8,3 C 5,0 C 88 % 1013,6 hPa 0,0 l/m 0 min 0 min 0 W/m 48,3 km/h (6 Bft) 97,87 %
28.12.2022 07:24 8,9 C 8,3 C 5,0 C 88 % 1013,6 hPa 0,0 l/m 0 min 0 min 0 W/m 35,4 km/h (5 Bft) 93,62 %
28.12.2022 07:26 8,9 C 8,3 C 5,0 C 88 % 1013,8 hPa 0,0 l/m 0 min 0 min 0 W/m 29,0 km/h (5 Bft) 95,74 %
28.12.2022 07:28 8,9 C 8,3 C 5,0 C 88 % 1013,7 hPa 0,0 l/m 0 min 0 min 0 W/m 38,6 km/h (5 Bft) 97,87 %
28.12.2022 07:30 8,9 C 8,3 C 5,0 C 88 % 1013,7 hPa 0,0 l/m 0 min 0 min 0 W/m 32,2 km/h (5 Bft) 100,00 %
28.12.2022 07:32 8,9 C 8,3 C 5,0 C 88 % 1013,7 hPa 0,0 l/m 0 min 0 min 0 W/m 35,4 km/h (5 Bft) 97,87 %
28.12.2022 07:34 8,9 C 8,3 C 5,0 C 88 % 1013,7 hPa 0,0 l/m 0 min 0 min 0 W/m 22,5 km/h (4 Bft) 100,00 %
28.12.2022 07:36 8,9 C 8,3 C 5,0 C 88 % 1013,6 hPa 0,0 l/m 0 min 0 min 0 W/m 45,1 km/h (6 Bft) 97,87 %
28.12.2022 07:38 8,9 C 8,3 C 5,0 C 88 % 1013,7 hPa 0,0 l/m 0 min 0 min 0 W/m 48,3 km/h (6 Bft) 100,00 %
28.12.2022 07:40 8,9 C 7,8 C 4,4 C 88 % 1013,7 hPa 0,0 l/m 0 min 0 min 0 W/m 22,5 km/h (4 Bft) 97,87 %
28.12.2022 07:42 8,9 C 8,3 C 4,4 C 88 % 1013,7 hPa 0,0 l/m 0 min 0 min 0 W/m 22,5 km/h (4 Bft) 100,00 %
28.12.2022 07:44 8,9 C 8,3 C 5,0 C 89 % 1013,7 hPa 0,0 l/m 0 min 0 min 0 W/m 22,5 km/h (4 Bft) 100,00 %
28.12.2022 07:46 8,8 C 8,3 C 5,0 C 88 % 1013,7 hPa 0,0 l/m 0 min 0 min 0 W/m 32,2 km/h (5 Bft) 97,87 %
28.12.2022 07:48 8,9 C 8,3 C 5,0 C 89 % 1013,8 hPa 0,0 l/m 0 min 0 min 0 W/m 32,2 km/h (5 Bft) 100,00 %
28.12.2022 07:50 8,8 C 7,8 C 4,4 C 89 % 1013,7 hPa 0,0 l/m 0 min 0 min 0 W/m 22,5 km/h (4 Bft) 100,00 %
28.12.2022 07:52 8,8 C 7,8 C 4,4 C 89 % 1013,7 hPa 0,0 l/m 0 min 0 min 0 W/m 29,0 km/h (5 Bft) 100,00 %
28.12.2022 07:54 8,8 C 7,8 C 4,4 C 89 % 1013,7 hPa 0,0 l/m 0 min 0 min 0 W/m 32,2 km/h (5 Bft) 100,00 %
28.12.2022 07:56 8,8 C 7,8 C 4,4 C 89 % 1013,7 hPa 0,0 l/m 0 min 0 min 0 W/m 32,2 km/h (5 Bft) 100,00 %
28.12.2022 07:58 8,8 C 7,8 C 4,4 C 89 % 1013,7 hPa 0,0 l/m 0 min 0 min 0 W/m 22,5 km/h (4 Bft) 97,87 %
28.12.2022 08:00 8,8 C 7,8 C 4,4 C 89 % 1013,7 hPa 0,0 l/m 0 min 0 min 0 W/m 25,7 km/h (4 Bft) 100,00 %
28.12.2022 08:02 8,8 C 7,8 C 4,4 C 89 % 1013,7 hPa 0,0 l/m 0 min 0 min 0 W/m 25,7 km/h (4 Bft) 97,87 %
28.12.2022 08:04 8,8 C 7,8 C 5,0 C 89 % 1013,7 hPa 0,0 l/m 0 min 0 min 0 W/m 19,3 km/h (3 Bft) 100,00 %
28.12.2022 08:06 8,8 C 8,3 C 5,0 C 89 % 1013,8 hPa 0,0 l/m 0 min 0 min 0 W/m 29,0 km/h (5 Bft) 100,00 %
28.12.2022 08:08 8,8 C 8,3 C 5,0 C 89 % 1013,7 hPa 0,0 l/m 0 min 0 min 0 W/m 29,0 km/h (5 Bft) 100,00 %
28.12.2022 08:10 8,8 C 8,3 C 5,0 C 89 % 1013,7 hPa 0,0 l/m 0 min 0 min 0 W/m 29,0 km/h (5 Bft) 100,00 %
28.12.2022 08:12 8,8 C 8,3 C 5,0 C 89 % 1013,7 hPa 0,0 l/m 0 min 0 min 0 W/m 22,5 km/h (4 Bft) 100,00 %
28.12.2022 08:14 8,8 C 8,3 C 5,0 C 89 % 1013,8 hPa 0,0 l/m 0 min 0 min 0 W/m 25,7 km/h (4 Bft) 100,00 %
28.12.2022 08:16 8,9 C 8,3 C 5,0 C 89 % 1013,7 hPa 0,0 l/m 0 min 0 min 0 W/m 25,7 km/h (4 Bft) 97,87 %
28.12.2022 08:18 8,9 C 8,3 C 5,0 C 89 % 1013,7 hPa 0,0 l/m 0 min 0 min 0 W/m 35,4 km/h (5 Bft) 100,00 %
28.12.2022 08:20 8,9 C 8,3 C 5,0 C 89 % 1013,5 hPa 0,0 l/m 0 min 0 min 0 W/m 38,6 km/h (5 Bft) 100,00 %
28.12.2022 08:22 8,9 C 8,3 C 5,0 C 89 % 1013,6 hPa 0,0 l/m 0 min 0 min 0 W/m 32,2 km/h (5 Bft) 100,00 %
28.12.2022 08:24 8,9 C 8,3 C 5,0 C 89 % 1013,6 hPa 0,0 l/m 0 min 0 min 0 W/m 35,4 km/h (5 Bft) 100,00 %
28.12.2022 08:26 8,9 C 8,3 C 5,0 C 89 % 1013,6 hPa 0,0 l/m 0 min 0 min 0 W/m 54,7 km/h (7 Bft) 97,87 %
28.12.2022 08:28 9,0 C 8,3 C 5,0 C 89 % 1013,6 hPa 0,0 l/m 0 min 0 min 0 W/m 32,2 km/h (5 Bft) 100,00 %
28.12.2022 08:30 9,0 C 8,3 C 5,0 C 89 % 1013,6 hPa 0,0 l/m 0 min 0 min 0 W/m 29,0 km/h (5 Bft) 100,00 %
28.12.2022 08:32 8,9 C 8,3 C 5,0 C 89 % 1013,6 hPa 0,0 l/m 0 min 0 min 0 W/m 32,2 km/h (5 Bft) 97,87 %
28.12.2022 08:34 8,9 C 8,3 C 5,0 C 89 % 1013,5 hPa 0,0 l/m 0 min 0 min 0 W/m 32,2 km/h (5 Bft) 100,00 %
28.12.2022 08:36 8,9 C 8,3 C 5,0 C 89 % 1013,5 hPa 0,0 l/m 0 min 0 min 0 W/m 25,7 km/h (4 Bft) 93,62 %
28.12.2022 08:38 8,9 C 8,3 C 5,0 C 89 % 1013,5 hPa 0,0 l/m 0 min 0 min 0 W/m 29,0 km/h (5 Bft) 85,11 %
28.12.2022 08:40 8,9 C 8,3 C 5,0 C 90 % 1013,5 hPa 0,0 l/m 0 min 0 min 0 W/m 29,0 km/h (5 Bft) 91,49 %
28.12.2022 08:42 8,9 C 8,3 C 5,0 C 90 % 1013,5 hPa 0,0 l/m 0 min 0 min 0 W/m 32,2 km/h (5 Bft) 89,13 %
28.12.2022 08:44 8,9 C 8,3 C 5,0 C 89 % 1013,5 hPa 0,0 l/m 0 min 0 min 0 W/m 25,7 km/h (4 Bft) 89,36 %
28.12.2022 08:46 8,9 C 8,3 C 5,0 C 89 % 1013,4 hPa 0,0 l/m 0 min 0 min 0 W/m 32,2 km/h (5 Bft) 89,36 %
28.12.2022 08:48 8,9 C 8,3 C 5,0 C 89 % 1013,5 hPa 0,0 l/m 0 min 0 min 0 W/m 35,4 km/h (5 Bft) 95,74 %
28.12.2022 08:50 8,9 C 8,3 C 5,0 C 89 % 1013,5 hPa 0,0 l/m 0 min 0 min 0 W/m 29,0 km/h (5 Bft) 97,87 %
28.12.2022 08:52 8,9 C 8,3 C 5,0 C 89 % 1013,5 hPa 0,0 l/m 0 min 0 min 0 W/m 32,2 km/h (5 Bft) 100,00 %
28.12.2022 08:54 8,9 C 8,3 C 5,0 C 89 % 1013,4 hPa 0,0 l/m 0 min 0 min 0 W/m 22,5 km/h (4 Bft) 93,62 %
28.12.2022 08:56 9,0 C 8,3 C 5,0 C 89 % 1013,4 hPa 0,0 l/m 0 min 0 min 0 W/m 32,2 km/h (5 Bft) 97,87 %
28.12.2022 08:58 9,0 C 8,3 C 5,0 C 89 % 1013,4 hPa 0,0 l/m 0 min 0 min 0 W/m 29,0 km/h (5 Bft) 95,74 %
28.12.2022 09:00 9,0 C 8,3 C 5,0 C 89 % 1013,4 hPa 0,0 l/m 0 min 0 min 5 W/m 45,1 km/h (6 Bft) 93,62 %
28.12.2022 09:02 9,1 C 8,3 C 5,0 C 89 % 1013,4 hPa 0,0 l/m 0 min 0 min 5 W/m 38,6 km/h (5 Bft) 95,74 %
28.12.2022 09:04 9,1 C 8,3 C 5,0 C 89 % 1013,4 hPa 0,0 l/m 0 min 0 min 6 W/m 29,0 km/h (5 Bft) 95,65 %
28.12.2022 09:06 9,1 C 8,3 C 5,0 C 89 % 1013,4 hPa 0,0 l/m 0 min 0 min 6 W/m 45,1 km/h (6 Bft) 82,98 %
28.12.2022 09:08 9,1 C 8,3 C 5,0 C 89 % 1013,4 hPa 0,0 l/m 0 min 0 min 7 W/m 32,2 km/h (5 Bft) 95,74 %
28.12.2022 09:10 9,1 C 8,3 C 5,0 C 89 % 1013,4 hPa 0,0 l/m 0 min 0 min 7 W/m 48,3 km/h (6 Bft) 95,74 %
28.12.2022 09:12 9,1 C 8,3 C 5,0 C 89 % 1013,4 hPa 0,0 l/m 0 min 0 min 8 W/m 29,0 km/h (5 Bft) 85,11 %
28.12.2022 09:14 9,1 C 8,3 C 5,0 C 89 % 1013,5 hPa 0,0 l/m 0 min 0 min 10 W/m 41,8 km/h (6 Bft) 93,62 %
28.12.2022 09:16 9,1 C 8,3 C 5,0 C 89 % 1013,5 hPa 0,0 l/m 0 min 0 min 11 W/m 32,2 km/h (5 Bft) 93,48 %
28.12.2022 09:18 9,1 C 8,3 C 5,0 C 89 % 1013,4 hPa 0,0 l/m 0 min 0 min 11 W/m 32,2 km/h (5 Bft) 93,62 %
28.12.2022 09:20 9,1 C 8,3 C 5,0 C 89 % 1013,4 hPa 0,0 l/m 0 min 0 min 11 W/m 29,0 km/h (5 Bft) 95,74 %
28.12.2022 09:22 9,1 C 8,3 C 5,0 C 89 % 1013,3 hPa 0,0 l/m 0 min 0 min 12 W/m 41,8 km/h (6 Bft) 91,49 %
28.12.2022 09:24 9,1 C 8,3 C 5,0 C 89 % 1013,4 hPa 0,0 l/m 0 min 0 min 13 W/m 29,0 km/h (5 Bft) 89,36 %
28.12.2022 09:26 9,1 C 8,3 C 5,0 C 89 % 1013,4 hPa 0,0 l/m 0 min 0 min 16 W/m 35,4 km/h (5 Bft) 94,74 %
28.12.2022 09:28 9,1 C 8,3 C 5,0 C 89 % 1013,4 hPa 0,0 l/m 0 min 0 min 18 W/m 35,4 km/h (5 Bft) 91,67 %
28.12.2022 09:30 9,1 C 8,3 C 5,0 C 89 % 1013,4 hPa 0,0 l/m 0 min 0 min 19 W/m 48,3 km/h (6 Bft) 93,62 %
28.12.2022 09:32 9,2 C 8,3 C 5,6 C 89 % 1013,4 hPa 0,0 l/m 0 min 0 min 22 W/m 45,1 km/h (6 Bft) 95,74 %
28.12.2022 09:34 9,2 C 8,3 C 5,6 C 89 % 1013,4 hPa 0,0 l/m 0 min 0 min 25 W/m 35,4 km/h (5 Bft) 93,62 %
28.12.2022 09:36 9,2 C 8,3 C 5,6 C 89 % 1013,4 hPa 0,0 l/m 0 min 0 min 26 W/m 29,0 km/h (5 Bft) 95,74 %
28.12.2022 09:38 9,2 C 8,3 C 5,6 C 89 % 1013,4 hPa 0,0 l/m 0 min 0 min 26 W/m 32,2 km/h (5 Bft) 95,74 %
28.12.2022 09:40 9,2 C 8,3 C 5,6 C 89 % 1013,4 hPa 0,0 l/m 0 min 0 min 26 W/m 29,0 km/h (5 Bft) 93,48 %
28.12.2022 09:42 9,2 C 8,3 C 5,6 C 89 % 1013,4 hPa 0,0 l/m 0 min 0 min 25 W/m 38,6 km/h (5 Bft) 93,62 %
28.12.2022 09:44 9,2 C 8,3 C 5,6 C 89 % 1013,4 hPa 0,0 l/m 0 min 0 min 25 W/m 35,4 km/h (5 Bft) 93,62 %
28.12.2022 09:46 9,2 C 8,9 C 5,6 C 89 % 1013,4 hPa 0,0 l/m 0 min 0 min 22 W/m 48,3 km/h (6 Bft) 95,74 %
28.12.2022 09:48 9,2 C 8,9 C 5,6 C 89 % 1013,4 hPa 0,0 l/m 0 min 0 min 23 W/m 45,1 km/h (6 Bft) 95,74 %
28.12.2022 09:50 9,3 C 8,9 C 5,6 C 89 % 1013,3 hPa 0,0 l/m 0 min 0 min 25 W/m 35,4 km/h (5 Bft) 95,74 %
28.12.2022 09:52 9,3 C 8,9 C 5,6 C 89 % 1013,4 hPa 0,0 l/m 0 min 0 min 25 W/m 35,4 km/h (5 Bft) 97,83 %
28.12.2022 09:54 9,3 C 8,9 C 5,6 C 89 % 1013,4 hPa 0,0 l/m 0 min 0 min 27 W/m 29,0 km/h (5 Bft) 95,74 %
28.12.2022 09:56 9,3 C 8,9 C 5,6 C 89 % 1013,4 hPa 0,0 l/m 0 min 0 min 27 W/m 35,4 km/h (5 Bft) 97,87 %
28.12.2022 09:58 9,3 C 8,9 C 5,6 C 89 % 1013,4 hPa 0,0 l/m 0 min 0 min 27 W/m 25,7 km/h (4 Bft) 97,87 %
28.12.2022 10:00 9,3 C 8,9 C 5,6 C 89 % 1013,5 hPa 0,0 l/m 0 min 0 min 25 W/m 25,7 km/h (4 Bft) 91,49 %
28.12.2022 10:02 9,3 C 8,9 C 5,6 C 89 % 1013,3 hPa 0,0 l/m 0 min 0 min 24 W/m 25,7 km/h (4 Bft) 97,87 %
28.12.2022 10:04 9,3 C 8,9 C 5,6 C 89 % 1013,5 hPa 0,0 l/m 0 min 0 min 25 W/m 41,8 km/h (6 Bft) 95,65 %
28.12.2022 10:06 9,3 C 8,9 C 5,6 C 89 % 1013,4 hPa 0,0 l/m 0 min 0 min 30 W/m 38,6 km/h (5 Bft) 93,62 %
28.12.2022 10:08 9,4 C 8,9 C 5,6 C 88 % 1013,5 hPa 0,0 l/m 0 min 0 min 32 W/m 41,8 km/h (6 Bft) 97,87 %
28.12.2022 10:10 9,4 C 8,9 C 5,6 C 88 % 1013,4 hPa 0,0 l/m 0 min 0 min 32 W/m 32,2 km/h (5 Bft) 97,87 %
28.12.2022 10:12 9,4 C 8,9 C 5,6 C 88 % 1013,4 hPa 0,0 l/m 0 min 0 min 30 W/m 25,7 km/h (4 Bft) 97,87 %
28.12.2022 10:14 9,4 C 8,9 C 5,6 C 88 % 1013,4 hPa 0,0 l/m 0 min 0 min 31 W/m 51,5 km/h (7 Bft) 100,00 %
28.12.2022 10:16 9,4 C 8,9 C 5,6 C 88 % 1013,4 hPa 0,0 l/m 0 min 0 min 34 W/m 29,0 km/h (5 Bft) 100,00 %
28.12.2022 10:18 9,5 C 8,9 C 5,6 C 88 % 1013,4 hPa 0,0 l/m 0 min 0 min 34 W/m 35,4 km/h (5 Bft) 100,00 %
28.12.2022 10:20 9,5 C 8,9 C 5,6 C 88 % 1013,4 hPa 0,0 l/m 0 min 0 min 34 W/m 32,2 km/h (5 Bft) 100,00 %
28.12.2022 10:22 9,5 C 8,9 C 5,6 C 88 % 1013,5 hPa 0,0 l/m 0 min 0 min 34 W/m 32,2 km/h (5 Bft) 100,00 %
28.12.2022 10:24 9,6 C 8,9 C 5,6 C 88 % 1013,4 hPa 0,0 l/m 0 min 0 min 33 W/m 45,1 km/h (6 Bft) 100,00 %
28.12.2022 10:26 9,6 C 8,9 C 5,6 C 88 % 1013,3 hPa 0,0 l/m 0 min 0 min 34 W/m 32,2 km/h (5 Bft) 97,87 %
28.12.2022 10:28 9,6 C 8,9 C 5,6 C 88 % 1013,4 hPa 0,0 l/m 0 min 0 min 34 W/m 25,7 km/h (4 Bft) 100,00 %
28.12.2022 10:30 9,6 C 8,9 C 5,6 C 88 % 1013,4 hPa 0,0 l/m 0 min 0 min 36 W/m 25,7 km/h (4 Bft) 100,00 %
28.12.2022 10:32 9,6 C 8,9 C 5,6 C 88 % 1013,4 hPa 0,0 l/m 0 min 0 min 37 W/m 35,4 km/h (5 Bft) 97,87 %
28.12.2022 10:34 9,6 C 8,9 C 5,6 C 88 % 1013,4 hPa 0,0 l/m 0 min 0 min 36 W/m 41,8 km/h (6 Bft) 97,87 %
28.12.2022 10:36 9,6 C 8,9 C 5,6 C 88 % 1013,4 hPa 0,0 l/m 0 min 0 min 33 W/m 19,3 km/h (3 Bft) 97,87 %
28.12.2022 10:38 9,6 C 8,9 C 5,6 C 88 % 1013,4 hPa 0,0 l/m 0 min 0 min 33 W/m 29,0 km/h (5 Bft) 97,87 %
28.12.2022 10:40 9,6 C 8,9 C 5,6 C 88 % 1013,4 hPa 0,0 l/m 0 min 0 min 34 W/m 29,0 km/h (5 Bft) 97,83 %
28.12.2022 10:42 9,6 C 8,9 C 5,6 C 88 % 1013,4 hPa 0,0 l/m 0 min 0 min 34 W/m 35,4 km/h (5 Bft) 100,00 %
28.12.2022 10:44 9,6 C 8,9 C 5,6 C 87 % 1013,4 hPa 0,0 l/m 0 min 0 min 39 W/m 41,8 km/h (6 Bft) 100,00 %
28.12.2022 10:46 9,7 C 9,4 C 5,6 C 87 % 1013,4 hPa 0,0 l/m 0 min 0 min 44 W/m 32,2 km/h (5 Bft) 95,74 %
28.12.2022 10:48 9,7 C 9,4 C 5,6 C 87 % 1013,4 hPa 0,0 l/m 0 min 0 min 48 W/m 41,8 km/h (6 Bft) 100,00 %
28.12.2022 10:50 9,7 C 9,4 C 5,6 C 87 % 1013,3 hPa 0,0 l/m 0 min 0 min 50 W/m 38,6 km/h (5 Bft) 100,00 %
28.12.2022 10:52 9,7 C 9,4 C 6,1 C 87 % 1013,3 hPa 0,0 l/m 0 min 0 min 52 W/m 29,0 km/h (5 Bft) 100,00 %
28.12.2022 10:54 9,7 C 9,4 C 5,6 C 87 % 1013,2 hPa 0,0 l/m 0 min 0 min 58 W/m 32,2 km/h (5 Bft) 95,74 %
28.12.2022 10:56 9,7 C 9,4 C 6,1 C 87 % 1013,3 hPa 0,0 l/m 0 min 0 min 58 W/m 29,0 km/h (5 Bft) 97,87 %
28.12.2022 10:58 9,7 C 9,4 C 6,1 C 87 % 1013,2 hPa 0,0 l/m 0 min 0 min 65 W/m 32,2 km/h (5 Bft) 97,87 %
28.12.2022 11:00 9,8 C 9,4 C 6,1 C 87 % 1013,2 hPa 0,0 l/m 0 min 0 min 69 W/m 51,5 km/h (7 Bft) 95,74 %
28.12.2022 11:02 9,8 C 9,4 C 6,1 C 87 % 1013,2 hPa 0,0 l/m 0 min 0 min 74 W/m 35,4 km/h (5 Bft) 97,87 %
28.12.2022 11:04 9,8 C 9,4 C 6,1 C 87 % 1013,1 hPa 0,0 l/m 0 min 0 min 81 W/m 22,5 km/h (4 Bft) 97,83 %
28.12.2022 11:06 9,8 C 9,4 C 6,1 C 87 % 1013,2 hPa 0,0 l/m 0 min 0 min 94 W/m 29,0 km/h (5 Bft) 97,87 %
28.12.2022 11:08 9,8 C 9,4 C 6,1 C 87 % 1013,1 hPa 0,0 l/m 0 min 0 min 106 W/m 29,0 km/h (5 Bft) 95,74 %
28.12.2022 11:10 9,9 C 9,4 C 6,1 C 87 % 1013,1 hPa 0,0 l/m 0 min 0 min 101 W/m 25,7 km/h (4 Bft) 97,87 %
28.12.2022 11:12 9,9 C 9,4 C 6,1 C 87 % 1013,0 hPa 0,0 l/m 0 min 0 min 89 W/m 35,4 km/h (5 Bft) 97,87 %
28.12.2022 11:14 9,9 C 9,4 C 6,1 C 87 % 1013,1 hPa 0,0 l/m 0 min 0 min 93 W/m 35,4 km/h (5 Bft) 97,87 %
28.12.2022 11:16 9,9 C 9,4 C 6,1 C 87 % 1013,1 hPa 0,0 l/m 0 min 0 min 99 W/m 45,1 km/h (6 Bft) 97,83 %
28.12.2022 11:18 9,9 C 10,0 C 6,1 C 87 % 1013,0 hPa 0,0 l/m 0 min 0 min 103 W/m 25,7 km/h (4 Bft) 95,74 %
28.12.2022 11:20 10,0 C 10,0 C 6,1 C 87 % 1013,1 hPa 0,0 l/m 0 min 0 min 108 W/m 45,1 km/h (6 Bft) 97,87 %
28.12.2022 11:22 10,0 C 10,0 C 6,1 C 87 % 1013,0 hPa 0,0 l/m 0 min 0 min 113 W/m 38,6 km/h (5 Bft) 97,87 %
28.12.2022 11:24 10,1 C 10,0 C 6,1 C 87 % 1013,0 hPa 0,0 l/m 0 min 0 min 115 W/m 41,8 km/h (6 Bft) 97,87 %
28.12.2022 11:26 10,1 C 10,0 C 6,1 C 86 % 1013,0 hPa 0,0 l/m 0 min 0 min 116 W/m 35,4 km/h (5 Bft) 100,00 %
28.12.2022 11:28 10,1 C 10,0 C 6,7 C 86 % 1013,0 hPa 0,0 l/m 0 min 0 min 125 W/m 35,4 km/h (5 Bft) 100,00 %
28.12.2022 11:30 10,1 C 10,0 C 6,7 C 86 % 1012,9 hPa 0,0 l/m 0 min 0 min 130 W/m 35,4 km/h (5 Bft) 97,87 %
28.12.2022 11:32 10,1 C 10,0 C 6,7 C 86 % 1013,0 hPa 0,0 l/m 0 min 0 min 121 W/m 29,0 km/h (5 Bft) 100,00 %
28.12.2022 11:34 10,1 C 10,0 C 6,7 C 86 % 1012,9 hPa 0,0 l/m 0 min 0 min 103 W/m 41,8 km/h (6 Bft) 100,00 %
28.12.2022 11:36 10,2 C 10,0 C 6,7 C 86 % 1012,9 hPa 0,0 l/m 0 min 0 min 84 W/m 38,6 km/h (5 Bft) 95,74 %
28.12.2022 11:38 10,2 C 10,0 C 6,7 C 86 % 1012,9 hPa 0,0 l/m 0 min 0 min 86 W/m 41,8 km/h (6 Bft) 97,87 %
28.12.2022 11:40 10,2 C 10,0 C 6,7 C 86 % 1012,9 hPa 0,0 l/m 0 min 0 min 95 W/m 32,2 km/h (5 Bft) 97,83 %
28.12.2022 11:42 10,2 C 10,0 C 6,7 C 86 % 1012,8 hPa 0,0 l/m 0 min 0 min 89 W/m 25,7 km/h (4 Bft) 100,00 %
28.12.2022 11:44 10,2 C 10,0 C 6,7 C 86 % 1012,9 hPa 0,0 l/m 0 min 0 min 90 W/m 35,4 km/h (5 Bft) 100,00 %
28.12.2022 11:46 10,2 C 10,0 C 6,7 C 86 % 1012,9 hPa 0,0 l/m 0 min 0 min 94 W/m 25,7 km/h (4 Bft) 95,74 %
28.12.2022 11:48 10,2 C 10,0 C 6,7 C 86 % 1012,7 hPa 0,0 l/m 0 min 0 min 100 W/m 45,1 km/h (6 Bft) 97,87 %
28.12.2022 11:50 10,2 C 10,0 C 6,7 C 86 % 1012,7 hPa 0,0 l/m 0 min 0 min 100 W/m 48,3 km/h (6 Bft) 97,87 %
28.12.2022 11:52 10,2 C 10,0 C 6,7 C 85 % 1012,6 hPa 0,0 l/m 0 min 0 min 99 W/m 35,4 km/h (5 Bft) 95,65 %
28.12.2022 11:54 10,3 C 10,0 C 6,7 C 85 % 1012,7 hPa 0,0 l/m 0 min 0 min 104 W/m 25,7 km/h (4 Bft) 97,87 %
28.12.2022 11:56 10,3 C 10,0 C 6,7 C 86 % 1012,7 hPa 0,0 l/m 0 min 0 min 112 W/m 38,6 km/h (5 Bft) 97,87 %
28.12.2022 11:58 10,3 C 10,0 C 6,7 C 86 % 1012,7 hPa 0,0 l/m 0 min 0 min 112 W/m 35,4 km/h (5 Bft) 97,87 %
28.12.2022 12:00 10,3 C 10,0 C 6,7 C 85 % 1012,7 hPa 0,0 l/m 0 min 0 min 113 W/m 41,8 km/h (6 Bft) 95,74 %
28.12.2022 12:02 10,4 C 10,0 C 6,7 C 85 % 1012,7 hPa 0,0 l/m 0 min 0 min 108 W/m 38,6 km/h (5 Bft) 95,65 %
28.12.2022 12:04 10,4 C 10,0 C 6,7 C 85 % 1012,7 hPa 0,0 l/m 0 min 0 min 99 W/m 35,4 km/h (5 Bft) 97,87 %
28.12.2022 12:08 10,4 C 10,0 C 6,7 C 85 % 1012,6 hPa 0,0 l/m 0 min 0 min 91 W/m 41,8 km/h (6 Bft) 94,68 %
28.12.2022 12:10 10,4 C 10,0 C 6,7 C 85 % 1012,6 hPa 0,0 l/m 0 min 0 min 86 W/m 35,4 km/h (5 Bft) 95,74 %
28.12.2022 12:12 10,4 C 10,0 C 6,7 C 85 % 1012,5 hPa 0,0 l/m 0 min 0 min 94 W/m 25,7 km/h (4 Bft) 97,87 %
28.12.2022 12:14 10,4 C 10,0 C 6,7 C 85 % 1012,6 hPa 0,0 l/m 0 min 0 min 104 W/m 38,6 km/h (5 Bft) 95,65 %
28.12.2022 12:16 10,4 C 10,0 C 6,7 C 85 % 1012,5 hPa 0,0 l/m 0 min 0 min 100 W/m 35,4 km/h (5 Bft) 93,62 %
28.12.2022 12:18 10,4 C 10,0 C 6,7 C 85 % 1012,5 hPa 0,0 l/m 0 min 0 min 89 W/m 29,0 km/h (5 Bft) 95,74 %
28.12.2022 12:20 10,5 C 10,0 C 6,7 C 85 % 1012,5 hPa 0,0 l/m 0 min 0 min 86 W/m 48,3 km/h (6 Bft) 93,62 %
28.12.2022 12:22 10,5 C 10,0 C 6,7 C 84 % 1012,4 hPa 0,0 l/m 0 min 0 min 87 W/m 45,1 km/h (6 Bft) 95,74 %
28.12.2022 12:24 10,5 C 10,0 C 6,7 C 84 % 1012,5 hPa 0,0 l/m 0 min 0 min 94 W/m 29,0 km/h (5 Bft) 93,62 %
28.12.2022 12:26 10,5 C 10,0 C 6,7 C 84 % 1012,4 hPa 0,0 l/m 0 min 0 min 96 W/m 25,7 km/h (4 Bft) 97,83 %
28.12.2022 12:28 10,5 C 10,0 C 6,7 C 85 % 1012,4 hPa 0,0 l/m 0 min 0 min 86 W/m 29,0 km/h (5 Bft) 95,74 %
28.12.2022 12:30 10,5 C 10,0 C 6,7 C 85 % 1012,3 hPa 0,0 l/m 0 min 0 min 82 W/m 32,2 km/h (5 Bft) 95,74 %
28.12.2022 12:32 10,5 C 10,0 C 6,7 C 85 % 1012,4 hPa 0,0 l/m 0 min 0 min 78 W/m 29,0 km/h (5 Bft) 93,62 %
28.12.2022 12:34 10,5 C 10,0 C 6,7 C 85 % 1012,3 hPa 0,0 l/m 0 min 0 min 79 W/m 45,1 km/h (6 Bft) 44,74 %
28.12.2022 12:36 10,5 C 10,0 C 6,7 C 85 % 1012,4 hPa 0,0 l/m 0 min 0 min 85 W/m 51,5 km/h (7 Bft) 97,87 %
28.12.2022 12:38 10,5 C 10,0 C 6,7 C 85 % 1012,3 hPa 0,0 l/m 0 min 0 min 81 W/m 25,7 km/h (4 Bft) 97,87 %
28.12.2022 12:40 10,5 C 10,0 C 6,7 C 84 % 1012,3 hPa 0,0 l/m 0 min 0 min 85 W/m 54,7 km/h (7 Bft) 95,65 %
28.12.2022 12:42 10,5 C 10,0 C 6,7 C 84 % 1012,2 hPa 0,0 l/m 0 min 0 min 79 W/m 38,6 km/h (5 Bft) 95,74 %
28.12.2022 12:44 10,5 C 10,0 C 6,7 C 84 % 1012,3 hPa 0,0 l/m 0 min 0 min 76 W/m 29,0 km/h (5 Bft) 97,87 %
28.12.2022 12:46 10,5 C 10,0 C 6,7 C 85 % 1012,3 hPa 0,0 l/m 0 min 0 min 79 W/m 32,2 km/h (5 Bft) 97,87 %
28.12.2022 12:48 10,5 C 10,0 C 6,7 C 85 % 1012,2 hPa 0,0 l/m 0 min 0 min 87 W/m 32,2 km/h (5 Bft) 95,74 %
28.12.2022 12:50 10,5 C 10,0 C 6,7 C 84 % 1012,2 hPa 0,0 l/m 0 min 0 min 91 W/m 32,2 km/h (5 Bft) 97,83 %
28.12.2022 12:52 10,5 C 10,0 C 6,7 C 84 % 1012,2 hPa 0,0 l/m 0 min 0 min 92 W/m 29,0 km/h (5 Bft) 97,87 %
28.12.2022 12:54 10,5 C 10,0 C 6,7 C 84 % 1012,2 hPa 0,0 l/m 0 min 0 min 91 W/m 38,6 km/h (5 Bft) 97,87 %
28.12.2022 12:56 10,5 C 10,0 C 6,7 C 84 % 1012,1 hPa 0,0 l/m 0 min 0 min 86 W/m 35,4 km/h (5 Bft) 95,74 %
28.12.2022 12:58 10,5 C 10,0 C 6,7 C 84 % 1012,1 hPa 0,0 l/m 0 min 0 min 85 W/m 32,2 km/h (5 Bft) 95,74 %
28.12.2022 13:00 10,6 C 10,0 C 6,7 C 84 % 1012,1 hPa 0,0 l/m 0 min 0 min 78 W/m 35,4 km/h (5 Bft) 95,74 %
28.12.2022 13:02 10,6 C 10,0 C 6,7 C 84 % 1012,1 hPa 0,0 l/m 0 min 0 min 80 W/m 38,6 km/h (5 Bft) 91,30 %
28.12.2022 13:04 10,6 C 10,0 C 6,7 C 84 % 1012,0 hPa 0,0 l/m 0 min 0 min 74 W/m 29,0 km/h (5 Bft) 97,87 %
28.12.2022 13:06 10,6 C 10,0 C 6,7 C 84 % 1012,0 hPa 0,0 l/m 0 min 0 min 68 W/m 38,6 km/h (5 Bft) 97,87 %
28.12.2022 13:08 10,6 C 10,0 C 6,7 C 83 % 1012,1 hPa 0,0 l/m 0 min 0 min 63 W/m 35,4 km/h (5 Bft) 97,87 %
28.12.2022 13:10 10,6 C 10,0 C 6,7 C 83 % 1012,1 hPa 0,0 l/m 0 min 0 min 72 W/m 38,6 km/h (5 Bft) 95,74 %
28.12.2022 13:12 10,6 C 10,0 C 6,7 C 83 % 1012,0 hPa 0,0 l/m 0 min 0 min 67 W/m 29,0 km/h (5 Bft) 95,74 %
28.12.2022 13:14 10,6 C 10,0 C 6,7 C 83 % 1011,9 hPa 0,0 l/m 0 min 0 min 59 W/m 32,2 km/h (5 Bft) 97,83 %
28.12.2022 13:16 10,5 C 10,0 C 6,7 C 83 % 1011,9 hPa 0,0 l/m 0 min 0 min 55 W/m 35,4 km/h (5 Bft) 97,87 %
28.12.2022 13:18 10,5 C 10,0 C 6,7 C 84 % 1011,9 hPa 0,0 l/m 0 min 0 min 56 W/m 35,4 km/h (5 Bft) 95,74 %
28.12.2022 13:20 10,4 C 10,0 C 6,7 C 83 % 1012,0 hPa 0,0 l/m 0 min 0 min 59 W/m 57,9 km/h (7 Bft) 97,87 %
28.12.2022 13:22 10,4 C 10,0 C 6,7 C 83 % 1011,9 hPa 0,0 l/m 0 min 0 min 58 W/m 54,7 km/h (7 Bft) 97,87 %
28.12.2022 13:24 10,4 C 10,0 C 6,7 C 83 % 1011,9 hPa 0,0 l/m 0 min 0 min 57 W/m 35,4 km/h (5 Bft) 97,87 %
28.12.2022 13:26 10,4 C 10,0 C 6,7 C 82 % 1011,9 hPa 0,0 l/m 0 min 2 min 54 W/m 48,3 km/h (6 Bft) 97,83 %
28.12.2022 13:28 10,4 C 10,0 C 6,1 C 82 % 1011,8 hPa 0,0 l/m 0 min 0 min 53 W/m 45,1 km/h (6 Bft) 97,87 %
28.12.2022 13:30 10,4 C 9,4 C 6,1 C 83 % 1011,8 hPa 0,0 l/m 0 min 0 min 53 W/m 25,7 km/h (4 Bft) 100,00 %
28.12.2022 13:32 10,4 C 9,4 C 6,1 C 83 % 1011,8 hPa 0,0 l/m 0 min 2 min 53 W/m 16,1 km/h (3 Bft) 100,00 %
28.12.2022 13:34 10,3 C 9,4 C 6,1 C 83 % 1011,8 hPa 0,0 l/m 0 min 2 min 52 W/m 29,0 km/h (5 Bft) 100,00 %
28.12.2022 13:36 10,3 C 9,4 C 6,1 C 83 % 1011,7 hPa 0,0 l/m 0 min 2 min 51 W/m 29,0 km/h (5 Bft) 97,87 %
28.12.2022 13:38 10,3 C 9,4 C 6,1 C 83 % 1011,6 hPa 0,0 l/m 0 min 2 min 49 W/m 38,6 km/h (5 Bft) 100,00 %
28.12.2022 13:40 10,3 C 9,4 C 6,1 C 83 % 1011,5 hPa 0,0 l/m 0 min 0 min 47 W/m 45,1 km/h (6 Bft) 100,00 %
28.12.2022 13:42 10,3 C 9,4 C 5,6 C 83 % 1011,6 hPa 0,0 l/m 0 min 2 min 47 W/m 70,8 km/h (8 Bft) 100,00 %
28.12.2022 13:44 10,2 C 9,4 C 6,1 C 83 % 1011,6 hPa 0,0 l/m 0 min 0 min 48 W/m 32,2 km/h (5 Bft) 100,00 %
28.12.2022 13:46 10,2 C 9,4 C 5,6 C 83 % 1011,4 hPa 0,0 l/m 0 min 0 min 51 W/m 41,8 km/h (6 Bft) 97,87 %
28.12.2022 13:48 10,2 C 9,4 C 5,6 C 84 % 1011,5 hPa 0,0 l/m 0 min 2 min 49 W/m 48,3 km/h (6 Bft) 95,74 %
28.12.2022 13:50 10,2 C 9,4 C 5,6 C 84 % 1011,5 hPa 0,0 l/m 0 min 2 min 46 W/m 25,7 km/h (4 Bft) 100,00 %
28.12.2022 13:52 10,2 C 9,4 C 5,6 C 84 % 1011,4 hPa 0,0 l/m 0 min 2 min 46 W/m 41,8 km/h (6 Bft) 97,87 %
28.12.2022 13:54 10,1 C 9,4 C 5,6 C 84 % 1011,4 hPa 0,0 l/m 0 min 2 min 50 W/m 35,4 km/h (5 Bft) 97,87 %
28.12.2022 13:56 10,1 C 9,4 C 5,6 C 84 % 1011,3 hPa 0,0 l/m 0 min 2 min 54 W/m 22,5 km/h (4 Bft) 97,87 %
28.12.2022 13:58 10,1 C 9,4 C 5,6 C 84 % 1011,2 hPa 0,0 l/m 0 min 2 min 52 W/m 38,6 km/h (5 Bft) 100,00 %
28.12.2022 14:00 10,1 C 9,4 C 5,6 C 84 % 1011,2 hPa 0,0 l/m 0 min 2 min 46 W/m 22,5 km/h (4 Bft) 97,87 %
28.12.2022 14:02 10,1 C 9,4 C 5,6 C 84 % 1011,3 hPa 0,0 l/m 0 min 0 min 42 W/m 38,6 km/h (5 Bft) 100,00 %
28.12.2022 14:04 10,1 C 9,4 C 5,6 C 84 % 1011,1 hPa 0,0 l/m 0 min 0 min 41 W/m 38,6 km/h (5 Bft) 100,00 %
28.12.2022 14:06 10,1 C 9,4 C 5,6 C 84 % 1011,2 hPa 0,0 l/m 0 min 0 min 39 W/m 32,2 km/h (5 Bft) 100,00 %
28.12.2022 14:08 10,1 C 9,4 C 6,1 C 84 % 1011,2 hPa 0,0 l/m 0 min 0 min 39 W/m 29,0 km/h (5 Bft) 100,00 %
28.12.2022 14:10 10,1 C 9,4 C 6,1 C 84 % 1011,1 hPa 0,0 l/m 0 min 0 min 39 W/m 25,7 km/h (4 Bft) 100,00 %
28.12.2022 14:12 10,1 C 9,4 C 6,1 C 84 % 1011,1 hPa 0,0 l/m 0 min 0 min 39 W/m 41,8 km/h (6 Bft) 100,00 %
28.12.2022 14:14 10,1 C 9,4 C 6,1 C 84 % 1011,2 hPa 0,0 l/m 0 min 0 min 39 W/m 29,0 km/h (5 Bft) 97,87 %
28.12.2022 14:16 10,1 C 9,4 C 6,1 C 83 % 1011,1 hPa 0,0 l/m 0 min 0 min 39 W/m 29,0 km/h (5 Bft) 97,83 %
28.12.2022 14:18 10,1 C 9,4 C 6,1 C 83 % 1010,9 hPa 0,0 l/m 0 min 0 min 39 W/m 32,2 km/h (5 Bft) 100,00 %
28.12.2022 14:20 10,1 C 9,4 C 6,1 C 83 % 1011,1 hPa 0,0 l/m 0 min 0 min 42 W/m 38,6 km/h (5 Bft) 97,87 %
28.12.2022 14:22 10,1 C 9,4 C 6,1 C 83 % 1011,1 hPa 0,0 l/m 0 min 0 min 42 W/m 22,5 km/h (4 Bft) 100,00 %
28.12.2022 14:24 10,1 C 9,4 C 6,1 C 83 % 1011,1 hPa 0,0 l/m 0 min 0 min 40 W/m 32,2 km/h (5 Bft) 100,00 %
28.12.2022 14:26 10,1 C 9,4 C 6,1 C 83 % 1011,0 hPa 0,0 l/m 0 min 0 min 38 W/m 22,5 km/h (4 Bft) 97,83 %
28.12.2022 14:28 10,1 C 9,4 C 6,1 C 83 % 1011,0 hPa 0,0 l/m 0 min 0 min 41 W/m 32,2 km/h (5 Bft) 100,00 %
28.12.2022 14:30 10,1 C 9,4 C 6,1 C 83 % 1010,9 hPa 0,0 l/m 0 min 0 min 44 W/m 35,4 km/h (5 Bft) 95,74 %
28.12.2022 14:32 10,1 C 9,4 C 6,1 C 83 % 1010,9 hPa 0,0 l/m 0 min 0 min 44 W/m 35,4 km/h (5 Bft) 95,74 %
28.12.2022 14:34 10,1 C 9,4 C 6,1 C 83 % 1010,9 hPa 0,0 l/m 0 min 0 min 43 W/m 35,4 km/h (5 Bft) 95,74 %
28.12.2022 14:36 10,1 C 9,4 C 6,1 C 83 % 1010,8 hPa 0,0 l/m 0 min 0 min 44 W/m 29,0 km/h (5 Bft) 95,74 %
28.12.2022 14:38 10,1 C 9,4 C 6,1 C 83 % 1010,7 hPa 0,0 l/m 0 min 0 min 44 W/m 29,0 km/h (5 Bft) 97,83 %
28.12.2022 14:40 10,1 C 9,4 C 6,1 C 83 % 1010,8 hPa 0,0 l/m 0 min 0 min 43 W/m 29,0 km/h (5 Bft) 97,87 %
28.12.2022 14:42 10,1 C 9,4 C 6,1 C 83 % 1010,7 hPa 0,0 l/m 0 min 0 min 42 W/m 29,0 km/h (5 Bft) 95,74 %
28.12.2022 14:44 10,1 C 9,4 C 6,1 C 83 % 1010,6 hPa 0,0 l/m 0 min 0 min 38 W/m 29,0 km/h (5 Bft) 95,74 %
28.12.2022 14:46 10,2 C 9,4 C 6,1 C 83 % 1010,6 hPa 0,0 l/m 0 min 0 min 34 W/m 19,3 km/h (3 Bft) 95,74 %
28.12.2022 14:48 10,2 C 9,4 C 6,1 C 83 % 1010,6 hPa 0,0 l/m 0 min 0 min 33 W/m 29,0 km/h (5 Bft) 97,87 %
28.12.2022 14:50 10,2 C 9,4 C 6,1 C 83 % 1010,7 hPa 0,0 l/m 0 min 0 min 32 W/m 29,0 km/h (5 Bft) 97,87 %
28.12.2022 14:52 10,2 C 9,4 C 6,1 C 83 % 1010,7 hPa 0,0 l/m 0 min 0 min 30 W/m 29,0 km/h (5 Bft) 91,30 %
28.12.2022 14:54 10,2 C 9,4 C 6,1 C 83 % 1010,7 hPa 0,0 l/m 0 min 0 min 27 W/m 25,7 km/h (4 Bft) 91,49 %
28.12.2022 14:56 10,2 C 9,4 C 6,1 C 83 % 1010,7 hPa 0,0 l/m 0 min 0 min 25 W/m 25,7 km/h (4 Bft) 95,74 %
28.12.2022 14:58 10,2 C 9,4 C 6,1 C 83 % 1010,7 hPa 0,0 l/m 0 min 0 min 22 W/m 25,7 km/h (4 Bft) 95,74 %
28.12.2022 15:00 10,2 C 9,4 C 6,1 C 83 % 1010,6 hPa 0,0 l/m 0 min 0 min 16 W/m 25,7 km/h (4 Bft) 95,74 %
28.12.2022 15:02 10,2 C 9,4 C 6,1 C 83 % 1010,6 hPa 0,0 l/m 0 min 0 min 14 W/m 32,2 km/h (5 Bft) 93,48 %
28.12.2022 15:04 10,2 C 9,4 C 6,1 C 83 % 1010,6 hPa 0,0 l/m 0 min 0 min 15 W/m 32,2 km/h (5 Bft) 93,33 %
28.12.2022 15:06 10,2 C 9,4 C 6,1 C 83 % 1010,5 hPa 0,0 l/m 0 min 0 min 19 W/m 25,7 km/h (4 Bft) 93,62 %
28.12.2022 15:10 10,2 C 9,4 C 6,1 C 83 % 1010,4 hPa 0,0 l/m 0 min 0 min 24 W/m 41,8 km/h (6 Bft) 94,74 %
28.12.2022 15:16 10,3 C 10,0 C 6,1 C 82 % 1010,3 hPa 0,0 l/m 0 min 0 min 31 W/m 35,4 km/h (5 Bft) 97,14 %
28.12.2022 15:18 10,3 C 10,0 C 6,1 C 82 % 1010,2 hPa 0,0 l/m 0 min 0 min 34 W/m 32,2 km/h (5 Bft) 93,75 %
28.12.2022 15:20 10,3 C 10,0 C 6,1 C 82 % 1010,2 hPa 0,0 l/m 0 min 0 min 34 W/m 25,7 km/h (4 Bft) 95,74 %
28.12.2022 15:22 10,3 C 10,0 C 6,1 C 82 % 1010,2 hPa 0,0 l/m 0 min 0 min 35 W/m 29,0 km/h (5 Bft) 93,62 %
28.12.2022 15:24 10,3 C 10,0 C 6,1 C 82 % 1010,2 hPa 0,0 l/m 0 min 0 min 36 W/m 38,6 km/h (5 Bft) 95,74 %
28.12.2022 15:26 10,3 C 10,0 C 6,1 C 82 % 1010,1 hPa 0,0 l/m 0 min 0 min 35 W/m 19,3 km/h (3 Bft) 97,87 %
28.12.2022 15:28 10,3 C 10,0 C 6,1 C 82 % 1010,1 hPa 0,0 l/m 0 min 0 min 33 W/m 19,3 km/h (3 Bft) 97,83 %
28.12.2022 15:30 10,4 C 10,0 C 6,1 C 82 % 1010,0 hPa 0,0 l/m 0 min 0 min 30 W/m 25,7 km/h (4 Bft) 95,74 %
28.12.2022 15:32 10,3 C 10,0 C 6,1 C 82 % 1010,0 hPa 0,0 l/m 0 min 0 min 28 W/m 51,5 km/h (7 Bft) 95,74 %
28.12.2022 15:34 10,3 C 10,0 C 6,1 C 81 % 1010,0 hPa 0,0 l/m 0 min 0 min 25 W/m 41,8 km/h (6 Bft) 97,87 %
28.12.2022 15:36 10,4 C 10,0 C 6,1 C 81 % 1009,9 hPa 0,0 l/m 0 min 0 min 21 W/m 41,8 km/h (6 Bft) 97,87 %
28.12.2022 15:38 10,4 C 10,0 C 6,1 C 81 % 1009,9 hPa 0,0 l/m 0 min 0 min 17 W/m 32,2 km/h (5 Bft) 95,74 %
28.12.2022 15:40 10,4 C 10,0 C 6,1 C 81 % 1009,9 hPa 0,0 l/m 0 min 0 min 15 W/m 29,0 km/h (5 Bft) 97,83 %
28.12.2022 15:42 10,4 C 10,0 C 6,1 C 81 % 1009,8 hPa 0,0 l/m 0 min 0 min 14 W/m 35,4 km/h (5 Bft) 97,87 %
28.12.2022 15:44 10,4 C 10,0 C 6,1 C 81 % 1009,8 hPa 0,0 l/m 0 min 0 min 14 W/m 35,4 km/h (5 Bft) 95,74 %
28.12.2022 15:46 10,4 C 9,4 C 6,1 C 81 % 1009,9 hPa 0,0 l/m 0 min 0 min 12 W/m 29,0 km/h (5 Bft) 97,87 %
28.12.2022 15:48 10,4 C 9,4 C 6,1 C 81 % 1009,7 hPa 0,0 l/m 0 min 0 min 12 W/m 22,5 km/h (4 Bft) 97,87 %
28.12.2022 15:50 10,4 C 9,4 C 6,1 C 80 % 1009,7 hPa 0,0 l/m 0 min 0 min 13 W/m 32,2 km/h (5 Bft) 97,87 %
28.12.2022 15:52 10,4 C 10,0 C 6,1 C 80 % 1009,7 hPa 0,0 l/m 0 min 0 min 14 W/m 29,0 km/h (5 Bft) 97,87 %
28.12.2022 15:54 10,4 C 9,4 C 6,1 C 80 % 1009,6 hPa 0,0 l/m 0 min 0 min 12 W/m 16,1 km/h (3 Bft) 100,00 %
28.12.2022 15:56 10,4 C 9,4 C 6,1 C 80 % 1009,6 hPa 0,0 l/m 0 min 0 min 12 W/m 22,5 km/h (4 Bft) 97,87 %
28.12.2022 15:58 10,4 C 10,0 C 6,1 C 80 % 1009,6 hPa 0,0 l/m 0 min 0 min 11 W/m 41,8 km/h (6 Bft) 100,00 %
28.12.2022 16:00 10,4 C 10,0 C 6,1 C 80 % 1009,5 hPa 0,0 l/m 0 min 0 min 11 W/m 38,6 km/h (5 Bft) 100,00 %
28.12.2022 16:02 10,4 C 10,0 C 6,1 C 80 % 1009,5 hPa 0,0 l/m 0 min 0 min 11 W/m 35,4 km/h (5 Bft) 97,87 %
28.12.2022 16:04 10,4 C 9,4 C 6,1 C 80 % 1009,4 hPa 0,0 l/m 0 min 0 min 11 W/m 22,5 km/h (4 Bft) 100,00 %
28.12.2022 16:06 10,4 C 10,0 C 6,1 C 80 % 1009,5 hPa 0,0 l/m 0 min 0 min 9 W/m 38,6 km/h (5 Bft) 100,00 %
28.12.2022 16:08 10,4 C 10,0 C 6,1 C 80 % 1009,4 hPa 0,0 l/m 0 min 0 min 9 W/m 29,0 km/h (5 Bft) 95,65 %
28.12.2022 16:10 10,4 C 9,4 C 6,1 C 80 % 1009,4 hPa 0,0 l/m 0 min 0 min 8 W/m 16,1 km/h (3 Bft) 100,00 %
28.12.2022 16:12 10,4 C 9,4 C 6,1 C 80 % 1009,3 hPa 0,0 l/m 0 min 0 min 6 W/m 32,2 km/h (5 Bft) 100,00 %
28.12.2022 16:14 10,4 C 9,4 C 6,1 C 80 % 1009,3 hPa 0,0 l/m 0 min 0 min 5 W/m 29,0 km/h (5 Bft) 97,87 %
28.12.2022 16:16 10,4 C 9,4 C 6,1 C 80 % 1009,3 hPa 0,0 l/m 0 min 0 min 5 W/m 29,0 km/h (5 Bft) 97,87 %
28.12.2022 16:18 10,4 C 9,4 C 6,1 C 80 % 1009,3 hPa 0,0 l/m 0 min 0 min 5 W/m 29,0 km/h (5 Bft) 100,00 %
28.12.2022 16:20 10,4 C 9,4 C 6,1 C 80 % 1009,2 hPa 0,0 l/m 0 min 0 min 5 W/m 25,7 km/h (4 Bft) 97,83 %
28.12.2022 16:22 10,4 C 9,4 C 6,1 C 80 % 1009,2 hPa 0,0 l/m 0 min 0 min 7 W/m 22,5 km/h (4 Bft) 100,00 %
28.12.2022 16:24 10,4 C 9,4 C 6,1 C 80 % 1009,0 hPa 0,0 l/m 0 min 0 min 7 W/m 19,3 km/h (3 Bft) 100,00 %
28.12.2022 16:26 10,4 C 9,4 C 6,1 C 80 % 1009,0 hPa 0,0 l/m 0 min 0 min 7 W/m 29,0 km/h (5 Bft) 95,74 %
28.12.2022 16:28 10,4 C 9,4 C 6,1 C 80 % 1008,9 hPa 0,0 l/m 0 min 0 min 6 W/m 16,1 km/h (3 Bft) 53,49 %
28.12.2022 16:30 10,3 C 9,4 C 6,1 C 80 % 1009,0 hPa 0,0 l/m 0 min 0 min 5 W/m 22,5 km/h (4 Bft) 97,87 %
28.12.2022 16:32 10,3 C 9,4 C 6,1 C 80 % 1009,0 hPa 0,0 l/m 0 min 0 min 0 W/m 25,7 km/h (4 Bft) 97,87 %
28.12.2022 16:34 10,3 C 9,4 C 6,1 C 80 % 1009,0 hPa 0,0 l/m 0 min 0 min 0 W/m 32,2 km/h (5 Bft) 100,00 %
28.12.2022 16:36 10,3 C 9,4 C 6,1 C 79 % 1008,9 hPa 0,0 l/m 0 min 0 min 0 W/m 22,5 km/h (4 Bft) 100,00 %
28.12.2022 16:38 10,3 C 9,4 C 6,1 C 79 % 1008,9 hPa 0,0 l/m 0 min 0 min 0 W/m 25,7 km/h (4 Bft) 97,87 %
28.12.2022 16:40 10,3 C 9,4 C 6,1 C 79 % 1008,8 hPa 0,0 l/m 0 min 0 min 0 W/m 22,5 km/h (4 Bft) 100,00 %
28.12.2022 16:42 10,3 C 9,4 C 6,1 C 79 % 1008,8 hPa 0,0 l/m 0 min 0 min 0 W/m 25,7 km/h (4 Bft) 97,87 %
28.12.2022 16:44 10,3 C 9,4 C 6,1 C 79 % 1008,7 hPa 0,0 l/m 0 min 0 min 0 W/m 22,5 km/h (4 Bft) 95,74 %
28.12.2022 16:46 10,3 C 9,4 C 6,1 C 79 % 1008,8 hPa 0,0 l/m 0 min 0 min 0 W/m 32,2 km/h (5 Bft) 97,87 %
28.12.2022 16:48 10,3 C 9,4 C 6,1 C 79 % 1008,7 hPa 0,0 l/m 0 min 0 min 0 W/m 35,4 km/h (5 Bft) 100,00 %
28.12.2022 16:50 10,3 C 9,4 C 6,1 C 79 % 1008,7 hPa 0,0 l/m 0 min 0 min 0 W/m 22,5 km/h (4 Bft) 100,00 %
28.12.2022 16:52 10,3 C 9,4 C 6,1 C 79 % 1008,7 hPa 0,0 l/m 0 min 0 min 0 W/m 22,5 km/h (4 Bft) 97,87 %
28.12.2022 16:54 10,3 C 9,4 C 6,1 C 79 % 1008,7 hPa 0,0 l/m 0 min 0 min 0 W/m 19,3 km/h (3 Bft) 97,87 %
28.12.2022 16:56 10,3 C 9,4 C 6,1 C 79 % 1008,7 hPa 0,0 l/m 0 min 0 min 0 W/m 12,9 km/h (3 Bft) 97,87 %
28.12.2022 16:58 10,3 C 9,4 C 6,1 C 79 % 1008,6 hPa 0,0 l/m 0 min 0 min 0 W/m 25,7 km/h (4 Bft) 97,87 %
28.12.2022 17:00 10,3 C 9,4 C 6,1 C 79 % 1008,6 hPa 0,0 l/m 0 min 0 min 0 W/m 19,3 km/h (3 Bft) 97,87 %
28.12.2022 17:02 10,3 C 9,4 C 6,1 C 79 % 1008,6 hPa 0,0 l/m 0 min 0 min 0 W/m 22,5 km/h (4 Bft) 97,83 %
28.12.2022 17:04 10,3 C 9,4 C 6,1 C 79 % 1008,5 hPa 0,0 l/m 0 min 0 min 0 W/m 22,5 km/h (4 Bft) 97,87 %
28.12.2022 17:06 10,3 C 9,4 C 5,6 C 79 % 1008,5 hPa 0,0 l/m 0 min 0 min 0 W/m 16,1 km/h (3 Bft) 97,87 %
28.12.2022 17:08 10,3 C 9,4 C 5,6 C 79 % 1008,5 hPa 0,0 l/m 0 min 0 min 0 W/m 16,1 km/h (3 Bft) 97,87 %
28.12.2022 17:10 10,3 C 9,4 C 5,6 C 79 % 1008,5 hPa 0,0 l/m 0 min 0 min 0 W/m 19,3 km/h (3 Bft) 97,87 %
28.12.2022 17:12 10,3 C 9,4 C 6,1 C 79 % 1008,4 hPa 0,0 l/m 0 min 0 min 0 W/m 22,5 km/h (4 Bft) 95,74 %
28.12.2022 17:14 10,3 C 9,4 C 5,6 C 79 % 1008,4 hPa 0,0 l/m 0 min 0 min 0 W/m 22,5 km/h (4 Bft) 100,00 %
28.12.2022 17:16 10,3 C 9,4 C 6,1 C 79 % 1008,3 hPa 0,0 l/m 0 min 0 min 0 W/m 22,5 km/h (4 Bft) 97,83 %
28.12.2022 17:18 10,3 C 9,4 C 6,1 C 79 % 1008,4 hPa 0,0 l/m 0 min 0 min 0 W/m 19,3 km/h (3 Bft) 97,87 %
28.12.2022 17:20 10,3 C 9,4 C 6,1 C 79 % 1008,3 hPa 0,0 l/m 0 min 0 min 0 W/m 19,3 km/h (3 Bft) 95,74 %
28.12.2022 17:22 10,3 C 9,4 C 6,1 C 79 % 1008,4 hPa 0,0 l/m 0 min 0 min 0 W/m 22,5 km/h (4 Bft) 95,74 %
28.12.2022 17:24 10,3 C 9,4 C 6,1 C 79 % 1008,3 hPa 0,0 l/m 0 min 0 min 0 W/m 16,1 km/h (3 Bft) 93,62 %
28.12.2022 17:26 10,3 C 9,4 C 6,1 C 79 % 1008,2 hPa 0,0 l/m 0 min 0 min 0 W/m 16,1 km/h (3 Bft) 97,87 %
28.12.2022 17:28 10,3 C 9,4 C 6,1 C 78 % 1008,2 hPa 0,0 l/m 0 min 0 min 0 W/m 25,7 km/h (4 Bft) 97,83 %
28.12.2022 17:30 10,3 C 9,4 C 6,1 C 78 % 1008,1 hPa 0,0 l/m 0 min 0 min 0 W/m 22,5 km/h (4 Bft) 97,87 %
28.12.2022 17:32 10,3 C 9,4 C 6,1 C 78 % 1008,1 hPa 0,0 l/m 0 min 0 min 0 W/m 22,5 km/h (4 Bft) 91,49 %
28.12.2022 17:34 10,3 C 9,4 C 6,1 C 78 % 1008,0 hPa 0,0 l/m 0 min 0 min 0 W/m 16,1 km/h (3 Bft) 97,87 %
28.12.2022 17:36 10,3 C 9,4 C 6,1 C 78 % 1008,0 hPa 0,0 l/m 0 min 0 min 0 W/m 25,7 km/h (4 Bft) 95,74 %
28.12.2022 17:38 10,4 C 9,4 C 6,1 C 78 % 1007,9 hPa 0,0 l/m 0 min 0 min 0 W/m 22,5 km/h (4 Bft) 95,74 %
28.12.2022 17:40 10,4 C 9,4 C 6,1 C 79 % 1007,9 hPa 0,0 l/m 0 min 0 min 0 W/m 19,3 km/h (3 Bft) 95,74 %
28.12.2022 17:42 10,4 C 9,4 C 5,6 C 79 % 1007,8 hPa 0,0 l/m 0 min 2 min 0 W/m 12,9 km/h (3 Bft) 100,00 %
28.12.2022 17:44 10,3 C 9,4 C 5,6 C 79 % 1007,8 hPa 0,0 l/m 0 min 2 min 0 W/m 19,3 km/h (3 Bft) 97,83 %
28.12.2022 17:46 10,3 C 9,4 C 5,0 C 79 % 1007,7 hPa 0,0 l/m 0 min 2 min 0 W/m 22,5 km/h (4 Bft) 93,62 %
28.12.2022 17:48 10,3 C 9,4 C 5,0 C 80 % 1007,7 hPa 0,0 l/m 0 min 2 min 0 W/m 25,7 km/h (4 Bft) 91,49 %
28.12.2022 17:50 10,3 C 8,9 C 5,0 C 81 % 1007,7 hPa 0,0 l/m 0 min 2 min 0 W/m 19,3 km/h (3 Bft) 95,74 %
28.12.2022 17:52 10,3 C 8,9 C 4,4 C 81 % 1007,6 hPa 0,0 l/m 0 min 2 min 0 W/m 22,5 km/h (4 Bft) 93,62 %
28.12.2022 17:54 10,2 C 8,9 C 4,4 C 81 % 1007,6 hPa 0,0 l/m 0 min 2 min 0 W/m 19,3 km/h (3 Bft) 95,74 %
28.12.2022 17:56 10,2 C 8,9 C 4,4 C 81 % 1007,6 hPa 0,0 l/m 0 min 2 min 0 W/m 29,0 km/h (5 Bft) 95,65 %
28.12.2022 17:58 10,2 C 8,9 C 4,4 C 82 % 1007,6 hPa 0,0 l/m 0 min 2 min 0 W/m 22,5 km/h (4 Bft) 95,74 %
28.12.2022 18:00 10,1 C 8,9 C 4,4 C 82 % 1007,6 hPa 0,0 l/m 0 min 2 min 0 W/m 19,3 km/h (3 Bft) 95,74 %
28.12.2022 18:02 10,1 C 8,9 C 3,9 C 82 % 1007,6 hPa 0,0 l/m 0 min 2 min 0 W/m 22,5 km/h (4 Bft) 93,62 %
28.12.2022 18:04 10,1 C 8,9 C 3,9 C 82 % 1007,6 hPa 0,0 l/m 0 min 2 min 0 W/m 12,9 km/h (3 Bft) 95,74 %
28.12.2022 18:08 9,9 C 8,9 C 3,9 C 83 % 1007,5 hPa 0,2 l/m 0 min 4 min 0 W/m 22,5 km/h (4 Bft) 96,34 %
28.12.2022 18:10 9,9 C 8,9 C 3,9 C 83 % 1007,4 hPa 0,0 l/m 0 min 2 min 0 W/m 22,5 km/h (4 Bft) 94,34 %
28.12.2022 18:12 9,9 C 8,9 C 3,9 C 84 % 1007,5 hPa 0,0 l/m 0 min 2 min 0 W/m 12,9 km/h (3 Bft) 95,65 %
28.12.2022 18:14 9,9 C 8,9 C 3,9 C 84 % 1007,5 hPa 0,0 l/m 0 min 2 min 0 W/m 16,1 km/h (3 Bft) 97,87 %
28.12.2022 18:16 9,8 C 8,9 C 3,9 C 84 % 1007,4 hPa 0,0 l/m 0 min 2 min 0 W/m 19,3 km/h (3 Bft) 97,87 %
28.12.2022 18:18 9,8 C 8,9 C 3,9 C 84 % 1007,4 hPa 0,0 l/m 0 min 2 min 0 W/m 22,5 km/h (4 Bft) 97,56 %
28.12.2022 18:20 9,8 C 8,9 C 3,9 C 84 % 1007,3 hPa 0,0 l/m 0 min 2 min 0 W/m 29,0 km/h (5 Bft) 97,87 %
28.12.2022 18:22 9,8 C 8,9 C 4,4 C 84 % 1007,4 hPa 0,0 l/m 0 min 2 min 0 W/m 25,7 km/h (4 Bft) 94,34 %
28.12.2022 18:24 9,7 C 8,9 C 4,4 C 85 % 1007,3 hPa 0,0 l/m 0 min 0 min 0 W/m 22,5 km/h (4 Bft) 97,87 %
28.12.2022 18:26 9,7 C 8,9 C 4,4 C 85 % 1007,2 hPa 0,0 l/m 0 min 0 min 0 W/m 22,5 km/h (4 Bft) 97,83 %
28.12.2022 18:28 9,7 C 8,9 C 4,4 C 85 % 1007,2 hPa 0,0 l/m 0 min 2 min 0 W/m 22,5 km/h (4 Bft) 100,00 %
28.12.2022 18:30 9,7 C 8,9 C 4,4 C 85 % 1007,2 hPa 0,0 l/m 0 min 2 min 0 W/m 25,7 km/h (4 Bft) 100,00 %
28.12.2022 18:32 9,8 C 8,9 C 4,4 C 85 % 1007,1 hPa 0,0 l/m 0 min 2 min 0 W/m 19,3 km/h (3 Bft) 93,62 %
28.12.2022 18:34 9,8 C 8,9 C 4,4 C 85 % 1007,1 hPa 0,0 l/m 0 min 2 min 0 W/m 22,5 km/h (4 Bft) 97,87 %
28.12.2022 18:36 9,7 C 8,9 C 4,4 C 85 % 1007,0 hPa 0,0 l/m 0 min 2 min 0 W/m 29,0 km/h (5 Bft) 100,00 %
28.12.2022 18:38 9,7 C 8,9 C 4,4 C 85 % 1007,0 hPa 0,0 l/m 0 min 2 min 0 W/m 25,7 km/h (4 Bft) 95,65 %
28.12.2022 18:40 9,7 C 8,9 C 4,4 C 85 % 1007,0 hPa 0,0 l/m 0 min 2 min 0 W/m 29,0 km/h (5 Bft) 100,00 %
28.12.2022 18:42 9,7 C 8,9 C 4,4 C 85 % 1007,0 hPa 0,0 l/m 0 min 2 min 0 W/m 22,5 km/h (4 Bft) 100,00 %
28.12.2022 18:44 9,7 C 8,9 C 4,4 C 85 % 1007,0 hPa 0,0 l/m 0 min 2 min 0 W/m 22,5 km/h (4 Bft) 97,87 %
28.12.2022 18:46 9,7 C 8,9 C 4,4 C 86 % 1006,9 hPa 0,0 l/m 0 min 2 min 0 W/m 19,3 km/h (3 Bft) 97,87 %
28.12.2022 18:48 9,7 C 8,9 C 4,4 C 86 % 1006,9 hPa 0,0 l/m 0 min 2 min 0 W/m 22,5 km/h (4 Bft) 97,87 %
28.12.2022 18:50 9,7 C 8,9 C 4,4 C 86 % 1006,9 hPa 0,0 l/m 0 min 2 min 0 W/m 48,3 km/h (6 Bft) 97,87 %
28.12.2022 18:52 9,7 C 8,9 C 4,4 C 86 % 1006,8 hPa 0,0 l/m 0 min 2 min 0 W/m 32,2 km/h (5 Bft) 95,65 %
28.12.2022 18:54 9,7 C 8,3 C 4,4 C 86 % 1006,8 hPa 0,0 l/m 0 min 2 min 0 W/m 25,7 km/h (4 Bft) 97,87 %
28.12.2022 18:56 9,7 C 8,3 C 4,4 C 86 % 1006,9 hPa 0,0 l/m 0 min 2 min 0 W/m 22,5 km/h (4 Bft) 97,87 %
28.12.2022 18:58 9,7 C 8,3 C 4,4 C 86 % 1006,8 hPa 0,0 l/m 0 min 2 min 0 W/m 25,7 km/h (4 Bft) 97,87 %
28.12.2022 19:00 9,7 C 8,3 C 4,4 C 87 % 1006,8 hPa 0,0 l/m 0 min 2 min 0 W/m 25,7 km/h (4 Bft) 97,87 %
28.12.2022 19:02 9,7 C 8,3 C 4,4 C 87 % 1006,8 hPa 0,0 l/m 0 min 2 min 0 W/m 22,5 km/h (4 Bft) 97,87 %
28.12.2022 19:04 9,7 C 8,3 C 4,4 C 87 % 1006,7 hPa 0,0 l/m 0 min 2 min 0 W/m 29,0 km/h (5 Bft) 97,87 %
28.12.2022 19:06 9,7 C 8,3 C 4,4 C 87 % 1006,8 hPa 0,0 l/m 0 min 2 min 0 W/m 22,5 km/h (4 Bft) 98,28 %
28.12.2022 19:08 9,6 C 8,3 C 4,4 C 87 % 1006,7 hPa 0,2 l/m 0 min 2 min 0 W/m 25,7 km/h (4 Bft) 94,29 %
28.12.2022 19:10 9,6 C 8,3 C 4,4 C 87 % 1006,7 hPa 0,0 l/m 0 min 2 min 0 W/m 19,3 km/h (3 Bft) 97,87 %
28.12.2022 19:12 9,6 C 8,3 C 4,4 C 88 % 1006,6 hPa 0,0 l/m 0 min 2 min 0 W/m 54,7 km/h (7 Bft) 97,87 %
28.12.2022 19:14 9,6 C 7,8 C 4,4 C 88 % 1006,6 hPa 0,0 l/m 0 min 2 min 0 W/m 22,5 km/h (4 Bft) 97,87 %
28.12.2022 19:16 9,6 C 7,8 C 4,4 C 88 % 1006,6 hPa 0,0 l/m 0 min 2 min 0 W/m 29,0 km/h (5 Bft) 97,87 %
28.12.2022 19:18 9,5 C 7,8 C 4,4 C 88 % 1006,5 hPa 0,0 l/m 0 min 2 min 0 W/m 16,1 km/h (3 Bft) 100,00 %
28.12.2022 19:20 9,5 C 7,8 C 3,9 C 88 % 1006,6 hPa 0,0 l/m 0 min 2 min 0 W/m 25,7 km/h (4 Bft) 100,00 %
28.12.2022 19:22 9,4 C 7,8 C 3,9 C 89 % 1006,5 hPa 0,0 l/m 0 min 2 min 0 W/m 22,5 km/h (4 Bft) 98,11 %
28.12.2022 19:24 9,4 C 7,8 C 3,9 C 89 % 1006,5 hPa 0,2 l/m 0 min 2 min 0 W/m 16,1 km/h (3 Bft) 100,00 %
28.12.2022 19:26 9,4 C 7,8 C 3,9 C 89 % 1006,5 hPa 0,0 l/m 0 min 2 min 0 W/m 25,7 km/h (4 Bft) 100,00 %
28.12.2022 19:28 9,3 C 7,8 C 3,9 C 89 % 1006,4 hPa 0,0 l/m 0 min 2 min 0 W/m 19,3 km/h (3 Bft) 97,87 %
28.12.2022 19:30 9,3 C 7,8 C 3,9 C 90 % 1006,4 hPa 0,0 l/m 0 min 2 min 0 W/m 19,3 km/h (3 Bft) 100,00 %
28.12.2022 19:32 9,3 C 7,8 C 3,9 C 90 % 1006,4 hPa 0,2 l/m 0 min 2 min 0 W/m 35,4 km/h (5 Bft) 100,00 %
28.12.2022 19:34 9,2 C 7,8 C 3,9 C 90 % 1006,3 hPa 0,0 l/m 0 min 2 min 0 W/m 16,1 km/h (3 Bft) 100,00 %
28.12.2022 19:36 9,2 C 7,8 C 3,9 C 90 % 1006,3 hPa 0,0 l/m 0 min 2 min 0 W/m 19,3 km/h (3 Bft) 100,00 %
28.12.2022 19:38 9,2 C 7,8 C 3,9 C 90 % 1006,1 hPa 0,0 l/m 0 min 2 min 0 W/m 22,5 km/h (4 Bft) 100,00 %
28.12.2022 19:40 9,2 C 7,8 C 3,9 C 91 % 1006,1 hPa 0,0 l/m 0 min 2 min 0 W/m 16,1 km/h (3 Bft) 100,00 %
28.12.2022 19:42 9,1 C 7,8 C 3,9 C 91 % 1006,1 hPa 0,0 l/m 0 min 2 min 0 W/m 22,5 km/h (4 Bft) 100,00 %
28.12.2022 19:44 9,1 C 7,8 C 3,9 C 91 % 1006,0 hPa 0,0 l/m 0 min 2 min 0 W/m 29,0 km/h (5 Bft) 100,00 %
28.12.2022 19:46 9,1 C 7,8 C 3,9 C 91 % 1006,0 hPa 0,2 l/m 0 min 2 min 0 W/m 22,5 km/h (4 Bft) 100,00 %
28.12.2022 19:48 9,1 C 7,8 C 3,9 C 91 % 1006,0 hPa 0,0 l/m 0 min 2 min 0 W/m 29,0 km/h (5 Bft) 100,00 %
28.12.2022 19:50 9,1 C 7,8 C 3,9 C 91 % 1006,0 hPa 0,0 l/m 0 min 2 min 0 W/m 19,3 km/h (3 Bft) 100,00 %
28.12.2022 19:52 9,0 C 7,8 C 3,9 C 91 % 1005,9 hPa 0,0 l/m 0 min 2 min 0 W/m 38,6 km/h (5 Bft) 100,00 %
28.12.2022 19:54 9,0 C 7,8 C 3,9 C 92 % 1005,9 hPa 0,0 l/m 0 min 2 min 0 W/m 22,5 km/h (4 Bft) 100,00 %
28.12.2022 19:56 9,0 C 7,8 C 3,9 C 92 % 1005,8 hPa 0,0 l/m 0 min 2 min 0 W/m 19,3 km/h (3 Bft) 47,50 %
28.12.2022 19:58 9,0 C 7,8 C 3,9 C 92 % 1005,9 hPa 0,0 l/m 0 min 2 min 0 W/m 25,7 km/h (4 Bft) 97,83 %
28.12.2022 20:00 9,0 C 7,8 C 3,9 C 92 % 1005,9 hPa 0,0 l/m 0 min 2 min 0 W/m 19,3 km/h (3 Bft) 100,00 %
28.12.2022 20:02 8,9 C 7,8 C 3,9 C 92 % 1005,9 hPa 0,2 l/m 0 min 2 min 0 W/m 22,5 km/h (4 Bft) 100,00 %
28.12.2022 20:04 8,9 C 7,8 C 3,9 C 92 % 1005,8 hPa 0,0 l/m 0 min 2 min 0 W/m 35,4 km/h (5 Bft) 100,00 %
28.12.2022 20:06 8,9 C 7,8 C 3,9 C 92 % 1005,9 hPa 0,0 l/m 0 min 2 min 0 W/m 38,6 km/h (5 Bft) 96,61 %
28.12.2022 20:08 8,9 C 7,8 C 3,9 C 92 % 1005,8 hPa 0,0 l/m 0 min 2 min 0 W/m 22,5 km/h (4 Bft) 91,43 %
28.12.2022 20:10 8,9 C 7,8 C 3,9 C 92 % 1005,8 hPa 0,0 l/m 0 min 2 min 0 W/m 19,3 km/h (3 Bft) 100,00 %
28.12.2022 20:12 8,9 C 7,8 C 3,9 C 92 % 1005,8 hPa 0,0 l/m 0 min 2 min 0 W/m 22,5 km/h (4 Bft) 95,74 %
28.12.2022 20:14 8,9 C 7,8 C 3,9 C 92 % 1005,8 hPa 0,0 l/m 0 min 2 min 0 W/m 25,7 km/h (4 Bft) 100,00 %
28.12.2022 20:16 8,9 C 7,8 C 3,9 C 92 % 1005,8 hPa 0,0 l/m 0 min 2 min 0 W/m 22,5 km/h (4 Bft) 97,87 %
28.12.2022 20:18 8,9 C 7,8 C 3,9 C 92 % 1005,6 hPa 0,0 l/m 0 min 2 min 0 W/m 25,7 km/h (4 Bft) 95,74 %
28.12.2022 20:20 8,9 C 7,8 C 3,9 C 92 % 1005,6 hPa 0,0 l/m 0 min 2 min 0 W/m 25,7 km/h (4 Bft) 95,74 %
28.12.2022 20:22 8,9 C 7,8 C 3,9 C 92 % 1005,6 hPa 0,0 l/m 0 min 2 min 0 W/m 22,5 km/h (4 Bft) 97,56 %
28.12.2022 20:24 8,9 C 7,8 C 3,9 C 93 % 1005,6 hPa 0,0 l/m 0 min 2 min 0 W/m 22,5 km/h (4 Bft) 93,62 %
28.12.2022 20:26 8,9 C 7,8 C 3,9 C 93 % 1005,5 hPa 0,0 l/m 0 min 2 min 0 W/m 22,5 km/h (4 Bft) 95,65 %
28.12.2022 20:28 8,9 C 7,8 C 3,9 C 93 % 1005,5 hPa 0,2 l/m 0 min 2 min 0 W/m 32,2 km/h (5 Bft) 95,74 %
28.12.2022 20:30 8,9 C 7,8 C 4,4 C 93 % 1005,6 hPa 0,0 l/m 0 min 0 min 0 W/m 22,5 km/h (4 Bft) 93,62 %
28.12.2022 20:32 8,9 C 7,8 C 4,4 C 93 % 1005,6 hPa 0,0 l/m 0 min 0 min 0 W/m 35,4 km/h (5 Bft) 95,74 %
28.12.2022 20:34 9,0 C 7,8 C 4,4 C 93 % 1005,6 hPa 0,0 l/m 0 min 0 min 0 W/m 29,0 km/h (5 Bft) 95,74 %
28.12.2022 20:36 9,0 C 7,8 C 4,4 C 93 % 1005,5 hPa 0,0 l/m 0 min 0 min 0 W/m 29,0 km/h (5 Bft) 95,74 %
28.12.2022 20:38 9,0 C 7,8 C 4,4 C 93 % 1005,5 hPa 0,0 l/m 0 min 0 min 0 W/m 19,3 km/h (3 Bft) 95,74 %
28.12.2022 20:40 9,0 C 8,3 C 4,4 C 93 % 1005,5 hPa 0,0 l/m 0 min 0 min 0 W/m 25,7 km/h (4 Bft) 93,48 %
28.12.2022 20:42 9,1 C 8,3 C 4,4 C 93 % 1005,5 hPa 0,0 l/m 0 min 0 min 0 W/m 29,0 km/h (5 Bft) 93,62 %
28.12.2022 20:44 9,1 C 8,3 C 4,4 C 93 % 1005,5 hPa 0,0 l/m 0 min 0 min 0 W/m 29,0 km/h (5 Bft) 93,62 %
28.12.2022 20:46 9,1 C 8,3 C 4,4 C 93 % 1005,5 hPa 0,0 l/m 0 min 0 min 0 W/m 25,7 km/h (4 Bft) 91,49 %
28.12.2022 20:48 9,1 C 8,3 C 4,4 C 93 % 1005,5 hPa 0,0 l/m 0 min 0 min 0 W/m 25,7 km/h (4 Bft) 93,62 %
28.12.2022 20:50 9,2 C 8,3 C 4,4 C 92 % 1005,5 hPa 0,0 l/m 0 min 0 min 0 W/m 35,4 km/h (5 Bft) 91,49 %
28.12.2022 20:52 9,2 C 8,3 C 4,4 C 92 % 1005,5 hPa 0,0 l/m 0 min 0 min 0 W/m 19,3 km/h (3 Bft) 93,62 %
28.12.2022 20:54 9,2 C 8,3 C 4,4 C 92 % 1005,6 hPa 0,0 l/m 0 min 0 min 0 W/m 22,5 km/h (4 Bft) 93,48 %
28.12.2022 20:56 9,3 C 8,3 C 4,4 C 92 % 1005,4 hPa 0,0 l/m 0 min 0 min 0 W/m 22,5 km/h (4 Bft) 94,34 %
28.12.2022 20:58 9,3 C 8,3 C 4,4 C 92 % 1005,4 hPa 0,0 l/m 0 min 0 min 0 W/m 25,7 km/h (4 Bft) 93,62 %
28.12.2022 21:00 9,3 C 8,3 C 4,4 C 92 % 1005,3 hPa 0,0 l/m 0 min 0 min 0 W/m 19,3 km/h (3 Bft) 95,74 %
28.12.2022 21:02 9,3 C 8,9 C 4,4 C 92 % 1005,3 hPa 0,0 l/m 0 min 0 min 0 W/m 32,2 km/h (5 Bft) 93,62 %
28.12.2022 21:04 9,4 C 8,9 C 4,4 C 92 % 1005,3 hPa 0,0 l/m 0 min 0 min 0 W/m 25,7 km/h (4 Bft) 95,74 %
28.12.2022 21:06 9,4 C 8,9 C 4,4 C 92 % 1005,3 hPa 0,0 l/m 0 min 0 min 0 W/m 25,7 km/h (4 Bft) 96,55 %
28.12.2022 21:08 9,5 C 8,9 C 4,4 C 92 % 1005,3 hPa 0,0 l/m 0 min 0 min 0 W/m 25,7 km/h (4 Bft) 94,29 %
28.12.2022 21:10 9,5 C 8,9 C 4,4 C 92 % 1005,3 hPa 0,0 l/m 0 min 0 min 0 W/m 22,5 km/h (4 Bft) 95,12 %
28.12.2022 21:12 9,6 C 8,9 C 4,4 C 92 % 1005,3 hPa 0,0 l/m 0 min 0 min 0 W/m 25,7 km/h (4 Bft) 97,87 %
28.12.2022 21:14 9,6 C 8,9 C 4,4 C 92 % 1005,3 hPa 0,0 l/m 0 min 0 min 0 W/m 22,5 km/h (4 Bft) 100,00 %
28.12.2022 21:16 9,6 C 8,9 C 4,4 C 91 % 1005,2 hPa 0,0 l/m 0 min 0 min 0 W/m 22,5 km/h (4 Bft) 97,87 %
28.12.2022 21:18 9,7 C 8,9 C 4,4 C 91 % 1005,2 hPa 0,0 l/m 0 min 0 min 0 W/m 19,3 km/h (3 Bft) 100,00 %
28.12.2022 21:20 9,7 C 8,9 C 4,4 C 91 % 1005,2 hPa 0,0 l/m 0 min 0 min 0 W/m 32,2 km/h (5 Bft) 100,00 %
28.12.2022 21:22 9,8 C 8,9 C 4,4 C 91 % 1005,2 hPa 0,0 l/m 0 min 0 min 0 W/m 16,1 km/h (3 Bft) 97,87 %
28.12.2022 21:24 9,8 C 8,9 C 5,0 C 91 % 1005,2 hPa 0,0 l/m 0 min 0 min 0 W/m 22,5 km/h (4 Bft) 100,00 %
28.12.2022 21:26 9,8 C 9,4 C 5,0 C 91 % 1005,1 hPa 0,0 l/m 0 min 0 min 0 W/m 25,7 km/h (4 Bft) 97,87 %
28.12.2022 21:28 9,9 C 9,4 C 5,0 C 91 % 1005,1 hPa 0,0 l/m 0 min 0 min 0 W/m 38,6 km/h (5 Bft) 97,87 %
28.12.2022 21:30 9,9 C 9,4 C 5,0 C 91 % 1005,1 hPa 0,0 l/m 0 min 0 min 0 W/m 19,3 km/h (3 Bft) 97,87 %
28.12.2022 21:32 10,0 C 9,4 C 5,0 C 90 % 1005,1 hPa 0,0 l/m 0 min 0 min 0 W/m 19,3 km/h (3 Bft) 97,87 %
28.12.2022 21:34 10,1 C 9,4 C 5,0 C 90 % 1005,1 hPa 0,0 l/m 0 min 0 min 0 W/m 29,0 km/h (5 Bft) 100,00 %
28.12.2022 21:36 10,1 C 9,4 C 5,0 C 90 % 1005,2 hPa 0,0 l/m 0 min 0 min 0 W/m 38,6 km/h (5 Bft) 100,00 %
28.12.2022 21:38 10,1 C 9,4 C 5,0 C 90 % 1005,1 hPa 0,0 l/m 0 min 0 min 0 W/m 16,1 km/h (3 Bft) 100,00 %
28.12.2022 21:40 10,2 C 9,4 C 5,0 C 90 % 1005,1 hPa 0,0 l/m 0 min 0 min 0 W/m 22,5 km/h (4 Bft) 97,87 %
28.12.2022 21:42 10,2 C 9,4 C 5,0 C 90 % 1005,1 hPa 0,0 l/m 0 min 0 min 0 W/m 35,4 km/h (5 Bft) 100,00 %
28.12.2022 21:44 10,3 C 10,0 C 5,0 C 90 % 1005,1 hPa 0,0 l/m 0 min 0 min 0 W/m 32,2 km/h (5 Bft) 100,00 %
28.12.2022 21:46 10,3 C 10,0 C 5,0 C 90 % 1005,0 hPa 0,0 l/m 0 min 0 min 0 W/m 25,7 km/h (4 Bft) 100,00 %
28.12.2022 21:48 10,4 C 10,0 C 5,0 C 89 % 1005,1 hPa 0,0 l/m 0 min 0 min 0 W/m 29,0 km/h (5 Bft) 97,83 %
28.12.2022 21:50 10,4 C 10,0 C 5,0 C 89 % 1005,0 hPa 0,0 l/m 0 min 0 min 0 W/m 38,6 km/h (5 Bft) 100,00 %
28.12.2022 21:52 10,4 C 10,0 C 5,0 C 89 % 1005,0 hPa 0,0 l/m 0 min 0 min 0 W/m 35,4 km/h (5 Bft) 100,00 %
28.12.2022 21:54 10,5 C 10,0 C 5,0 C 89 % 1004,9 hPa 0,0 l/m 0 min 0 min 0 W/m 38,6 km/h (5 Bft) 97,87 %
28.12.2022 21:56 10,6 C 10,0 C 5,0 C 89 % 1005,0 hPa 0,0 l/m 0 min 0 min 0 W/m 51,5 km/h (7 Bft) 100,00 %
28.12.2022 21:58 10,6 C 10,0 C 5,0 C 89 % 1005,0 hPa 0,0 l/m 0 min 0 min 0 W/m 29,0 km/h (5 Bft) 98,11 %
28.12.2022 22:00 10,6 C 10,0 C 5,0 C 89 % 1004,9 hPa 0,0 l/m 0 min 0 min 0 W/m 22,5 km/h (4 Bft) 97,83 %
28.12.2022 22:02 10,7 C 10,0 C 5,0 C 89 % 1004,9 hPa 0,0 l/m 0 min 0 min 0 W/m 35,4 km/h (5 Bft) 100,00 %
28.12.2022 22:04 10,7 C 10,0 C 5,0 C 89 % 1004,9 hPa 0,0 l/m 0 min 0 min 0 W/m 41,8 km/h (6 Bft) 100,00 %
28.12.2022 22:09 10,7 C 10,0 C 5,0 C 89 % 1005,0 hPa 0,0 l/m 0 min 0 min 0 W/m 35,4 km/h (5 Bft) 96,49 %
28.12.2022 22:10 10,7 C 10,0 C 5,6 C 89 % 1005,0 hPa 0,0 l/m 0 min 0 min 0 W/m 29,0 km/h (5 Bft) 100,00 %
28.12.2022 22:12 10,7 C 10,0 C 5,6 C 89 % 1004,9 hPa 0,0 l/m 0 min 0 min 0 W/m 35,4 km/h (5 Bft) 97,83 %
28.12.2022 22:14 10,8 C 10,0 C 5,6 C 89 % 1004,9 hPa 0,0 l/m 0 min 0 min 0 W/m 29,0 km/h (5 Bft) 97,87 %
28.12.2022 22:16 10,8 C 10,0 C 5,6 C 89 % 1004,9 hPa 0,0 l/m 0 min 0 min 0 W/m 22,5 km/h (4 Bft) 100,00 %
28.12.2022 22:18 10,8 C 10,0 C 5,6 C 89 % 1004,9 hPa 0,0 l/m 0 min 0 min 0 W/m 25,7 km/h (4 Bft) 100,00 %
28.12.2022 22:20 10,8 C 10,0 C 5,6 C 89 % 1004,9 hPa 0,0 l/m 0 min 0 min 0 W/m 25,7 km/h (4 Bft) 100,00 %
28.12.2022 22:22 10,8 C 10,0 C 5,6 C 89 % 1004,8 hPa 0,0 l/m 0 min 0 min 0 W/m 32,2 km/h (5 Bft) 97,87 %
28.12.2022 22:24 10,9 C 10,0 C 5,6 C 89 % 1004,8 hPa 0,0 l/m 0 min 0 min 0 W/m 22,5 km/h (4 Bft) 97,87 %
28.12.2022 22:26 10,9 C 10,0 C 5,6 C 89 % 1004,8 hPa 0,0 l/m 0 min 0 min 0 W/m 29,0 km/h (5 Bft) 97,83 %
28.12.2022 22:28 10,9 C 10,0 C 5,6 C 89 % 1004,8 hPa 0,0 l/m 0 min 0 min 0 W/m 29,0 km/h (5 Bft) 95,12 %
28.12.2022 22:30 10,9 C 10,0 C 5,6 C 89 % 1004,8 hPa 0,0 l/m 0 min 0 min 0 W/m 22,5 km/h (4 Bft) 97,87 %
28.12.2022 22:32 10,9 C 10,0 C 5,6 C 89 % 1004,8 hPa 0,0 l/m 0 min 0 min 0 W/m 16,1 km/h (3 Bft) 95,74 %
28.12.2022 22:34 10,9 C 10,0 C 5,6 C 89 % 1004,7 hPa 0,0 l/m 0 min 0 min 0 W/m 35,4 km/h (5 Bft) 97,87 %
28.12.2022 22:36 11,0 C 10,6 C 5,6 C 89 % 1004,7 hPa 0,0 l/m 0 min 0 min 0 W/m 29,0 km/h (5 Bft) 95,74 %
28.12.2022 22:38 11,0 C 10,6 C 5,6 C 89 % 1004,6 hPa 0,0 l/m 0 min 0 min 0 W/m 35,4 km/h (5 Bft) 98,08 %
28.12.2022 22:40 11,0 C 10,0 C 5,6 C 88 % 1004,6 hPa 0,0 l/m 0 min 0 min 0 W/m 19,3 km/h (3 Bft) 97,87 %
28.12.2022 22:42 11,1 C 10,6 C 5,6 C 88 % 1004,6 hPa 0,0 l/m 0 min 0 min 0 W/m 25,7 km/h (4 Bft) 97,87 %
28.12.2022 22:44 11,1 C 10,6 C 5,6 C 88 % 1004,6 hPa 0,0 l/m 0 min 0 min 0 W/m 38,6 km/h (5 Bft) 93,62 %
28.12.2022 22:46 11,1 C 10,6 C 5,6 C 88 % 1004,6 hPa 0,0 l/m 0 min 0 min 0 W/m 35,4 km/h (5 Bft) 95,74 %
28.12.2022 22:48 11,1 C 10,6 C 5,6 C 88 % 1004,6 hPa 0,0 l/m 0 min 0 min 0 W/m 19,3 km/h (3 Bft) 95,74 %
28.12.2022 22:50 11,1 C 10,6 C 5,6 C 88 % 1004,6 hPa 0,0 l/m 0 min 0 min 0 W/m 45,1 km/h (6 Bft) 95,74 %
28.12.2022 22:52 11,1 C 10,6 C 5,6 C 88 % 1004,5 hPa 0,0 l/m 0 min 0 min 0 W/m 25,7 km/h (4 Bft) 97,83 %
28.12.2022 22:54 11,2 C 10,6 C 5,6 C 88 % 1004,5 hPa 0,0 l/m 0 min 0 min 0 W/m 29,0 km/h (5 Bft) 93,62 %
28.12.2022 22:56 11,2 C 10,6 C 5,6 C 88 % 1004,6 hPa 0,0 l/m 0 min 0 min 0 W/m 29,0 km/h (5 Bft) 95,12 %
28.12.2022 22:58 11,2 C 10,6 C 5,6 C 88 % 1004,5 hPa 0,0 l/m 0 min 0 min 0 W/m 29,0 km/h (5 Bft) 96,00 %
28.12.2022 23:00 11,2 C 10,0 C 5,6 C 88 % 1004,6 hPa 0,0 l/m 0 min 2 min 0 W/m 38,6 km/h (5 Bft) 95,74 %
28.12.2022 23:02 11,2 C 9,4 C 5,6 C 89 % 1004,6 hPa 0,0 l/m 0 min 2 min 0 W/m 29,0 km/h (5 Bft) 95,74 %
28.12.2022 23:04 11,2 C 9,4 C 5,6 C 89 % 1004,6 hPa 0,0 l/m 0 min 2 min 0 W/m 25,7 km/h (4 Bft) 94,00 %
28.12.2022 23:06 11,1 C 9,4 C 5,6 C 89 % 1004,5 hPa 0,0 l/m 0 min 2 min 0 W/m 22,5 km/h (4 Bft) 95,65 %
28.12.2022 23:08 11,1 C 9,4 C 5,6 C 90 % 1004,6 hPa 0,0 l/m 0 min 2 min 0 W/m 32,2 km/h (5 Bft) 91,49 %
28.12.2022 23:10 11,0 C 10,0 C 5,6 C 90 % 1004,4 hPa 0,0 l/m 0 min 2 min 0 W/m 25,7 km/h (4 Bft) 97,87 %
28.12.2022 23:12 11,0 C 10,0 C 5,6 C 90 % 1004,4 hPa 0,0 l/m 0 min 2 min 0 W/m 25,7 km/h (4 Bft) 97,87 %
28.12.2022 23:14 10,9 C 10,0 C 5,6 C 90 % 1004,6 hPa 0,0 l/m 0 min 2 min 0 W/m 25,7 km/h (4 Bft) 97,87 %
28.12.2022 23:16 10,9 C 10,0 C 5,6 C 90 % 1004,4 hPa 0,0 l/m 0 min 0 min 0 W/m 38,6 km/h (5 Bft) 97,87 %
28.12.2022 23:18 10,9 C 10,0 C 5,6 C 91 % 1004,4 hPa 0,0 l/m 0 min 0 min 0 W/m 32,2 km/h (5 Bft) 97,87 %
28.12.2022 23:20 10,9 C 10,0 C 5,6 C 91 % 1004,4 hPa 0,0 l/m 0 min 0 min 0 W/m 22,5 km/h (4 Bft) 97,83 %
28.12.2022 23:22 10,9 C 10,0 C 5,6 C 91 % 1004,3 hPa 0,0 l/m 0 min 0 min 0 W/m 22,5 km/h (4 Bft) 97,87 %
28.12.2022 23:24 10,9 C 10,0 C 5,6 C 91 % 1004,4 hPa 0,0 l/m 0 min 0 min 0 W/m 35,4 km/h (5 Bft) 95,74 %
28.12.2022 23:26 10,9 C 10,0 C 5,6 C 91 % 1004,4 hPa 0,0 l/m 0 min 0 min 0 W/m 22,5 km/h (4 Bft) 95,74 %
28.12.2022 23:28 10,9 C 10,0 C 5,6 C 91 % 1004,3 hPa 0,0 l/m 0 min 0 min 0 W/m 25,7 km/h (4 Bft) 95,74 %
28.12.2022 23:30 10,9 C 10,0 C 5,6 C 91 % 1004,4 hPa 0,0 l/m 0 min 0 min 0 W/m 29,0 km/h (5 Bft) 98,00 %
28.12.2022 23:32 11,0 C 10,6 C 5,6 C 91 % 1004,4 hPa 0,0 l/m 0 min 0 min 0 W/m 32,2 km/h (5 Bft) 93,48 %
28.12.2022 23:34 11,0 C 10,6 C 5,6 C 91 % 1004,4 hPa 0,0 l/m 0 min 0 min 0 W/m 19,3 km/h (3 Bft) 93,62 %
28.12.2022 23:36 11,0 C 10,6 C 5,6 C 91 % 1004,4 hPa 0,0 l/m 0 min 0 min 0 W/m 25,7 km/h (4 Bft) 95,74 %
28.12.2022 23:38 11,0 C 10,6 C 5,6 C 91 % 1004,3 hPa 0,0 l/m 0 min 0 min 0 W/m 19,3 km/h (3 Bft) 97,87 %
28.12.2022 23:40 11,1 C 10,6 C 5,6 C 90 % 1004,3 hPa 0,0 l/m 0 min 0 min 0 W/m 32,2 km/h (5 Bft) 95,74 %
28.12.2022 23:42 11,1 C 10,6 C 5,6 C 90 % 1004,3 hPa 0,0 l/m 0 min 0 min 0 W/m 32,2 km/h (5 Bft) 97,87 %
28.12.2022 23:44 11,1 C 10,6 C 5,6 C 90 % 1004,3 hPa 0,0 l/m 0 min 0 min 0 W/m 25,7 km/h (4 Bft) 97,83 %
28.12.2022 23:46 11,1 C 10,6 C 5,6 C 90 % 1004,3 hPa 0,0 l/m 0 min 0 min 0 W/m 32,2 km/h (5 Bft) 97,87 %
28.12.2022 23:48 11,1 C 10,6 C 5,6 C 90 % 1004,2 hPa 0,0 l/m 0 min 0 min 0 W/m 29,0 km/h (5 Bft) 95,74 %
28.12.2022 23:50 11,1 C 10,6 C 5,6 C 90 % 1004,1 hPa 0,0 l/m 0 min 0 min 0 W/m 29,0 km/h (5 Bft) 97,87 %
28.12.2022 23:52 11,1 C 10,6 C 5,6 C 90 % 1004,1 hPa 0,0 l/m 0 min 0 min 0 W/m 32,2 km/h (5 Bft) 95,74 %
28.12.2022 23:54 11,2 C 10,6 C 5,6 C 90 % 1004,1 hPa 0,0 l/m 0 min 0 min 0 W/m 25,7 km/h (4 Bft) 97,87 %
28.12.2022 23:56 11,2 C 10,6 C 5,6 C 90 % 1004,1 hPa 0,0 l/m 0 min 0 min 0 W/m 22,5 km/h (4 Bft) 97,83 %
28.12.2022 23:58 11,2 C 10,6 C 5,6 C 90 % 1004,1 hPa 0,0 l/m 0 min 0 min 0 W/m 35,4 km/h (5 Bft) 95,74 %
_ Min-Zeit 00:00 00:00 00:00 17:28 23:50 - - - - 00:00 12:34
Minimum _ 4,8 C 3,9 C 1,1 C 78 % 1004,1 hPa - - - - 6,4 km/h (2 Bft) 44,74 %
_ Max-Zeit 22:54 22:36 11:28 20:24 00:00 01:50 00:00 18:08 11:30 13:42 00:00
Maximum _ 11,2 C 10,6 C 6,7 C 93 % 1019,9 hPa 0,2 l/m 0 min 4 min 130 W/m 70,8 km/h
S-SW (8 Bft)
100,00 %
Durchschnitt _ 9,1 C 8,4 C 4,7 C 87 % 1011,6 hPa #1,6 l/m #0 min. #4:14 h 48 W/m 28,0 km/h (4 Bft) 96,95 %
© 2022 W. Hausmann